<?xml version="1.0" encoding="UTF-8" standalone="no" ?>
<gpx xmlns="http://www.topografix.com/GPX/1/1" xmlns:xsi="http://www.w3.org/2001/XMLSchema-instance" xsi:schemaLocation="http://www.topografix.com/GPX/1/1 http://www.topografix.com/GPX/1/1/gpx.xsd" version="1.1" creator="VisuGPX - https://www.visugpx.com">
  <metadata>
    <name>sortie du 18/02/2018</name>
    <desc><![CDATA[très très boueux.... pour une reprise]]></desc>
  </metadata>
  <trk>
    <name><![CDATA[Tracé actuel: 18 FEV 2018 09:23]]></name>
    <trkseg>
      <trkpt lat="43.35221" lon="-0.5532">
        <ele>119.34</ele>
        <time>2018-02-18T08:23:55Z</time>
      </trkpt>
      <trkpt lat="43.35223" lon="-0.55318">
        <ele>115.5</ele>
        <time>2018-02-18T08:24:15Z</time>
      </trkpt>
      <trkpt lat="43.35223" lon="-0.55307">
        <ele>116.46</ele>
        <time>2018-02-18T08:24:22Z</time>
      </trkpt>
      <trkpt lat="43.35222" lon="-0.5527">
        <ele>116.94</ele>
        <time>2018-02-18T08:24:36Z</time>
      </trkpt>
      <trkpt lat="43.35223" lon="-0.55259">
        <ele>115.98</ele>
        <time>2018-02-18T08:24:45Z</time>
      </trkpt>
      <trkpt lat="43.35216" lon="-0.55234">
        <ele>117.42</ele>
        <time>2018-02-18T08:24:54Z</time>
      </trkpt>
      <trkpt lat="43.35182" lon="-0.55173">
        <ele>117.9</ele>
        <time>2018-02-18T08:25:09Z</time>
      </trkpt>
      <trkpt lat="43.35167" lon="-0.55147">
        <ele>119.34</ele>
        <time>2018-02-18T08:25:15Z</time>
      </trkpt>
      <trkpt lat="43.35164" lon="-0.55142">
        <ele>119.34</ele>
        <time>2018-02-18T08:25:16Z</time>
      </trkpt>
      <trkpt lat="43.35161" lon="-0.55139">
        <ele>119.34</ele>
        <time>2018-02-18T08:25:17Z</time>
      </trkpt>
      <trkpt lat="43.35153" lon="-0.55131">
        <ele>119.82</ele>
        <time>2018-02-18T08:25:19Z</time>
      </trkpt>
      <trkpt lat="43.35148" lon="-0.55128">
        <ele>119.82</ele>
        <time>2018-02-18T08:25:20Z</time>
      </trkpt>
      <trkpt lat="43.3513" lon="-0.55118">
        <ele>119.82</ele>
        <time>2018-02-18T08:25:24Z</time>
      </trkpt>
      <trkpt lat="43.35125" lon="-0.55116">
        <ele>119.82</ele>
        <time>2018-02-18T08:25:25Z</time>
      </trkpt>
      <trkpt lat="43.35111" lon="-0.55111">
        <ele>119.82</ele>
        <time>2018-02-18T08:25:28Z</time>
      </trkpt>
      <trkpt lat="43.35106" lon="-0.55108">
        <ele>119.82</ele>
        <time>2018-02-18T08:25:29Z</time>
      </trkpt>
      <trkpt lat="43.35102" lon="-0.55106">
        <ele>119.82</ele>
        <time>2018-02-18T08:25:30Z</time>
      </trkpt>
      <trkpt lat="43.35065" lon="-0.55088">
        <ele>119.34</ele>
        <time>2018-02-18T08:25:38Z</time>
      </trkpt>
      <trkpt lat="43.35046" lon="-0.55076">
        <ele>118.38</ele>
        <time>2018-02-18T08:25:42Z</time>
      </trkpt>
      <trkpt lat="43.35025" lon="-0.55057">
        <ele>116.46</ele>
        <time>2018-02-18T08:25:47Z</time>
      </trkpt>
      <trkpt lat="43.35017" lon="-0.55048">
        <ele>116.46</ele>
        <time>2018-02-18T08:25:49Z</time>
      </trkpt>
      <trkpt lat="43.35014" lon="-0.55044">
        <ele>116.46</ele>
        <time>2018-02-18T08:25:50Z</time>
      </trkpt>
      <trkpt lat="43.34986" lon="-0.55005">
        <ele>116.94</ele>
        <time>2018-02-18T08:25:58Z</time>
      </trkpt>
      <trkpt lat="43.34983" lon="-0.55">
        <ele>116.94</ele>
        <time>2018-02-18T08:25:59Z</time>
      </trkpt>
      <trkpt lat="43.3498" lon="-0.54995">
        <ele>116.94</ele>
        <time>2018-02-18T08:26:00Z</time>
      </trkpt>
      <trkpt lat="43.34953" lon="-0.54947">
        <ele>119.82</ele>
        <time>2018-02-18T08:26:09Z</time>
      </trkpt>
      <trkpt lat="43.34928" lon="-0.54917">
        <ele>119.82</ele>
        <time>2018-02-18T08:26:18Z</time>
      </trkpt>
      <trkpt lat="43.34897" lon="-0.54901">
        <ele>119.82</ele>
        <time>2018-02-18T08:26:25Z</time>
      </trkpt>
      <trkpt lat="43.34855" lon="-0.5489">
        <ele>119.34</ele>
        <time>2018-02-18T08:26:33Z</time>
      </trkpt>
      <trkpt lat="43.34846" lon="-0.54884">
        <ele>118.86</ele>
        <time>2018-02-18T08:26:35Z</time>
      </trkpt>
      <trkpt lat="43.34842" lon="-0.5488">
        <ele>118.86</ele>
        <time>2018-02-18T08:26:36Z</time>
      </trkpt>
      <trkpt lat="43.34839" lon="-0.54875">
        <ele>118.86</ele>
        <time>2018-02-18T08:26:37Z</time>
      </trkpt>
      <trkpt lat="43.34832" lon="-0.54864">
        <ele>117.9</ele>
        <time>2018-02-18T08:26:39Z</time>
      </trkpt>
      <trkpt lat="43.34829" lon="-0.54859">
        <ele>117.42</ele>
        <time>2018-02-18T08:26:40Z</time>
      </trkpt>
      <trkpt lat="43.34827" lon="-0.54852">
        <ele>117.42</ele>
        <time>2018-02-18T08:26:41Z</time>
      </trkpt>
      <trkpt lat="43.34827" lon="-0.54844">
        <ele>116.94</ele>
        <time>2018-02-18T08:26:42Z</time>
      </trkpt>
      <trkpt lat="43.34827" lon="-0.54839">
        <ele>116.94</ele>
        <time>2018-02-18T08:26:43Z</time>
      </trkpt>
      <trkpt lat="43.34828" lon="-0.54833">
        <ele>116.94</ele>
        <time>2018-02-18T08:26:44Z</time>
      </trkpt>
      <trkpt lat="43.34828" lon="-0.54828">
        <ele>117.42</ele>
        <time>2018-02-18T08:26:45Z</time>
      </trkpt>
      <trkpt lat="43.34848" lon="-0.54787">
        <ele>121.74</ele>
        <time>2018-02-18T08:26:56Z</time>
      </trkpt>
      <trkpt lat="43.34874" lon="-0.54765">
        <ele>125.11</ele>
        <time>2018-02-18T08:27:09Z</time>
      </trkpt>
      <trkpt lat="43.34899" lon="-0.54733">
        <ele>128.47</ele>
        <time>2018-02-18T08:27:24Z</time>
      </trkpt>
      <trkpt lat="43.34919" lon="-0.54683">
        <ele>129.92</ele>
        <time>2018-02-18T08:27:41Z</time>
      </trkpt>
      <trkpt lat="43.34937" lon="-0.54641">
        <ele>134.24</ele>
        <time>2018-02-18T08:27:57Z</time>
      </trkpt>
      <trkpt lat="43.34962" lon="-0.54633">
        <ele>140.01</ele>
        <time>2018-02-18T08:28:11Z</time>
      </trkpt>
      <trkpt lat="43.34987" lon="-0.54636">
        <ele>142.41</ele>
        <time>2018-02-18T08:28:28Z</time>
      </trkpt>
      <trkpt lat="43.35014" lon="-0.54642">
        <ele>144.34</ele>
        <time>2018-02-18T08:28:43Z</time>
      </trkpt>
      <trkpt lat="43.35036" lon="-0.54648">
        <ele>148.18</ele>
        <time>2018-02-18T08:28:57Z</time>
      </trkpt>
      <trkpt lat="43.35065" lon="-0.54647">
        <ele>150.1</ele>
        <time>2018-02-18T08:29:14Z</time>
      </trkpt>
      <trkpt lat="43.35085" lon="-0.54657">
        <ele>151.54</ele>
        <time>2018-02-18T08:29:29Z</time>
      </trkpt>
      <trkpt lat="43.351" lon="-0.54654">
        <ele>151.54</ele>
        <time>2018-02-18T08:29:40Z</time>
      </trkpt>
      <trkpt lat="43.35102" lon="-0.54652">
        <ele>151.54</ele>
        <time>2018-02-18T08:29:41Z</time>
      </trkpt>
      <trkpt lat="43.35103" lon="-0.5465">
        <ele>152.03</ele>
        <time>2018-02-18T08:29:42Z</time>
      </trkpt>
      <trkpt lat="43.35104" lon="-0.54649">
        <ele>152.99</ele>
        <time>2018-02-18T08:29:43Z</time>
      </trkpt>
      <trkpt lat="43.35105" lon="-0.54647">
        <ele>152.99</ele>
        <time>2018-02-18T08:29:44Z</time>
      </trkpt>
      <trkpt lat="43.35123" lon="-0.54629">
        <ele>159.72</ele>
        <time>2018-02-18T08:29:56Z</time>
      </trkpt>
      <trkpt lat="43.35141" lon="-0.54621">
        <ele>164.04</ele>
        <time>2018-02-18T08:30:09Z</time>
      </trkpt>
      <trkpt lat="43.3516" lon="-0.54602">
        <ele>167.41</ele>
        <time>2018-02-18T08:30:22Z</time>
      </trkpt>
      <trkpt lat="43.35164" lon="-0.5459">
        <ele>167.41</ele>
        <time>2018-02-18T08:30:28Z</time>
      </trkpt>
      <trkpt lat="43.35164" lon="-0.54589">
        <ele>167.41</ele>
        <time>2018-02-18T08:30:29Z</time>
      </trkpt>
      <trkpt lat="43.35164" lon="-0.54587">
        <ele>166.93</ele>
        <time>2018-02-18T08:30:30Z</time>
      </trkpt>
      <trkpt lat="43.35164" lon="-0.54584">
        <ele>167.89</ele>
        <time>2018-02-18T08:30:31Z</time>
      </trkpt>
      <trkpt lat="43.35164" lon="-0.54581">
        <ele>168.37</ele>
        <time>2018-02-18T08:30:32Z</time>
      </trkpt>
      <trkpt lat="43.35164" lon="-0.54579">
        <ele>169.33</ele>
        <time>2018-02-18T08:30:33Z</time>
      </trkpt>
      <trkpt lat="43.35163" lon="-0.54577">
        <ele>170.29</ele>
        <time>2018-02-18T08:30:34Z</time>
      </trkpt>
      <trkpt lat="43.35164" lon="-0.54563">
        <ele>180.38</ele>
        <time>2018-02-18T08:30:41Z</time>
      </trkpt>
      <trkpt lat="43.35165" lon="-0.5456">
        <ele>180.87</ele>
        <time>2018-02-18T08:30:42Z</time>
      </trkpt>
      <trkpt lat="43.35163" lon="-0.54536">
        <ele>185.19</ele>
        <time>2018-02-18T08:30:53Z</time>
      </trkpt>
      <trkpt lat="43.35164" lon="-0.54502">
        <ele>188.56</ele>
        <time>2018-02-18T08:31:07Z</time>
      </trkpt>
      <trkpt lat="43.35166" lon="-0.54474">
        <ele>186.63</ele>
        <time>2018-02-18T08:31:22Z</time>
      </trkpt>
      <trkpt lat="43.35176" lon="-0.54437">
        <ele>183.27</ele>
        <time>2018-02-18T08:31:40Z</time>
      </trkpt>
      <trkpt lat="43.35188" lon="-0.54379">
        <ele>182.31</ele>
        <time>2018-02-18T08:31:55Z</time>
      </trkpt>
      <trkpt lat="43.35201" lon="-0.5431">
        <ele>180.87</ele>
        <time>2018-02-18T08:32:09Z</time>
      </trkpt>
      <trkpt lat="43.35201" lon="-0.54305">
        <ele>180.87</ele>
        <time>2018-02-18T08:32:10Z</time>
      </trkpt>
      <trkpt lat="43.352" lon="-0.543">
        <ele>180.87</ele>
        <time>2018-02-18T08:32:11Z</time>
      </trkpt>
      <trkpt lat="43.35199" lon="-0.54295">
        <ele>180.87</ele>
        <time>2018-02-18T08:32:12Z</time>
      </trkpt>
      <trkpt lat="43.35197" lon="-0.54291">
        <ele>181.35</ele>
        <time>2018-02-18T08:32:13Z</time>
      </trkpt>
      <trkpt lat="43.35196" lon="-0.54286">
        <ele>181.35</ele>
        <time>2018-02-18T08:32:14Z</time>
      </trkpt>
      <trkpt lat="43.35195" lon="-0.54282">
        <ele>181.35</ele>
        <time>2018-02-18T08:32:15Z</time>
      </trkpt>
      <trkpt lat="43.35194" lon="-0.54278">
        <ele>181.35</ele>
        <time>2018-02-18T08:32:16Z</time>
      </trkpt>
      <trkpt lat="43.3518" lon="-0.54215">
        <ele>183.75</ele>
        <time>2018-02-18T08:32:32Z</time>
      </trkpt>
      <trkpt lat="43.35169" lon="-0.54178">
        <ele>185.67</ele>
        <time>2018-02-18T08:32:46Z</time>
      </trkpt>
      <trkpt lat="43.35174" lon="-0.54145">
        <ele>190</ele>
        <time>2018-02-18T08:33:02Z</time>
      </trkpt>
      <trkpt lat="43.35174" lon="-0.54143">
        <ele>190</ele>
        <time>2018-02-18T08:33:03Z</time>
      </trkpt>
      <trkpt lat="43.35185" lon="-0.54105">
        <ele>191.44</ele>
        <time>2018-02-18T08:33:21Z</time>
      </trkpt>
      <trkpt lat="43.3519" lon="-0.54077">
        <ele>197.69</ele>
        <time>2018-02-18T08:33:37Z</time>
      </trkpt>
      <trkpt lat="43.35184" lon="-0.54062">
        <ele>199.61</ele>
        <time>2018-02-18T08:33:46Z</time>
      </trkpt>
      <trkpt lat="43.35182" lon="-0.54061">
        <ele>199.61</ele>
        <time>2018-02-18T08:33:47Z</time>
      </trkpt>
      <trkpt lat="43.35181" lon="-0.5406">
        <ele>199.61</ele>
        <time>2018-02-18T08:33:48Z</time>
      </trkpt>
      <trkpt lat="43.3518" lon="-0.54059">
        <ele>199.61</ele>
        <time>2018-02-18T08:33:49Z</time>
      </trkpt>
      <trkpt lat="43.35178" lon="-0.54057">
        <ele>200.09</ele>
        <time>2018-02-18T08:33:50Z</time>
      </trkpt>
      <trkpt lat="43.35177" lon="-0.54056">
        <ele>199.61</ele>
        <time>2018-02-18T08:33:51Z</time>
      </trkpt>
      <trkpt lat="43.35176" lon="-0.54055">
        <ele>200.09</ele>
        <time>2018-02-18T08:33:52Z</time>
      </trkpt>
      <trkpt lat="43.35175" lon="-0.54054">
        <ele>200.09</ele>
        <time>2018-02-18T08:33:53Z</time>
      </trkpt>
      <trkpt lat="43.35174" lon="-0.54053">
        <ele>200.09</ele>
        <time>2018-02-18T08:33:54Z</time>
      </trkpt>
      <trkpt lat="43.35172" lon="-0.54052">
        <ele>200.09</ele>
        <time>2018-02-18T08:33:55Z</time>
      </trkpt>
      <trkpt lat="43.35171" lon="-0.54051">
        <ele>200.09</ele>
        <time>2018-02-18T08:33:56Z</time>
      </trkpt>
      <trkpt lat="43.3517" lon="-0.5405">
        <ele>200.09</ele>
        <time>2018-02-18T08:33:57Z</time>
      </trkpt>
      <trkpt lat="43.35168" lon="-0.54049">
        <ele>200.57</ele>
        <time>2018-02-18T08:33:58Z</time>
      </trkpt>
      <trkpt lat="43.35167" lon="-0.54048">
        <ele>200.57</ele>
        <time>2018-02-18T08:33:59Z</time>
      </trkpt>
      <trkpt lat="43.35166" lon="-0.54047">
        <ele>200.57</ele>
        <time>2018-02-18T08:34:00Z</time>
      </trkpt>
      <trkpt lat="43.35138" lon="-0.54035">
        <ele>202.98</ele>
        <time>2018-02-18T08:34:16Z</time>
      </trkpt>
      <trkpt lat="43.35106" lon="-0.5402">
        <ele>200.57</ele>
        <time>2018-02-18T08:34:29Z</time>
      </trkpt>
      <trkpt lat="43.35086" lon="-0.53985">
        <ele>204.9</ele>
        <time>2018-02-18T08:34:39Z</time>
      </trkpt>
      <trkpt lat="43.35077" lon="-0.53966">
        <ele>208.26</ele>
        <time>2018-02-18T08:34:43Z</time>
      </trkpt>
      <trkpt lat="43.35075" lon="-0.53959">
        <ele>209.22</ele>
        <time>2018-02-18T08:34:44Z</time>
      </trkpt>
      <trkpt lat="43.35073" lon="-0.53952">
        <ele>210.19</ele>
        <time>2018-02-18T08:34:45Z</time>
      </trkpt>
      <trkpt lat="43.35072" lon="-0.53946">
        <ele>211.15</ele>
        <time>2018-02-18T08:34:46Z</time>
      </trkpt>
      <trkpt lat="43.35071" lon="-0.53939">
        <ele>212.59</ele>
        <time>2018-02-18T08:34:47Z</time>
      </trkpt>
      <trkpt lat="43.3507" lon="-0.53933">
        <ele>214.51</ele>
        <time>2018-02-18T08:34:48Z</time>
      </trkpt>
      <trkpt lat="43.3507" lon="-0.53928">
        <ele>215.95</ele>
        <time>2018-02-18T08:34:49Z</time>
      </trkpt>
      <trkpt lat="43.35067" lon="-0.53872">
        <ele>226.53</ele>
        <time>2018-02-18T08:35:00Z</time>
      </trkpt>
      <trkpt lat="43.35059" lon="-0.53827">
        <ele>229.89</ele>
        <time>2018-02-18T08:35:08Z</time>
      </trkpt>
      <trkpt lat="43.35057" lon="-0.5382">
        <ele>230.37</ele>
        <time>2018-02-18T08:35:09Z</time>
      </trkpt>
      <trkpt lat="43.35051" lon="-0.53796">
        <ele>232.3</ele>
        <time>2018-02-18T08:35:12Z</time>
      </trkpt>
      <trkpt lat="43.35039" lon="-0.53729">
        <ele>221.72</ele>
        <time>2018-02-18T08:35:21Z</time>
      </trkpt>
      <trkpt lat="43.35037" lon="-0.53725">
        <ele>218.36</ele>
        <time>2018-02-18T08:35:22Z</time>
      </trkpt>
      <trkpt lat="43.35035" lon="-0.53723">
        <ele>215.95</ele>
        <time>2018-02-18T08:35:23Z</time>
      </trkpt>
      <trkpt lat="43.35033" lon="-0.53723">
        <ele>213.55</ele>
        <time>2018-02-18T08:35:24Z</time>
      </trkpt>
      <trkpt lat="43.35032" lon="-0.53723">
        <ele>209.22</ele>
        <time>2018-02-18T08:35:25Z</time>
      </trkpt>
      <trkpt lat="43.35029" lon="-0.53725">
        <ele>206.34</ele>
        <time>2018-02-18T08:35:26Z</time>
      </trkpt>
      <trkpt lat="43.35025" lon="-0.53729">
        <ele>204.42</ele>
        <time>2018-02-18T08:35:27Z</time>
      </trkpt>
      <trkpt lat="43.35021" lon="-0.53734">
        <ele>202.49</ele>
        <time>2018-02-18T08:35:28Z</time>
      </trkpt>
      <trkpt lat="43.34986" lon="-0.53771">
        <ele>192.4</ele>
        <time>2018-02-18T08:35:34Z</time>
      </trkpt>
      <trkpt lat="43.34973" lon="-0.53789">
        <ele>186.63</ele>
        <time>2018-02-18T08:35:37Z</time>
      </trkpt>
      <trkpt lat="43.34969" lon="-0.53797">
        <ele>185.19</ele>
        <time>2018-02-18T08:35:38Z</time>
      </trkpt>
      <trkpt lat="43.34968" lon="-0.53806">
        <ele>183.75</ele>
        <time>2018-02-18T08:35:39Z</time>
      </trkpt>
      <trkpt lat="43.34968" lon="-0.53816">
        <ele>182.31</ele>
        <time>2018-02-18T08:35:40Z</time>
      </trkpt>
      <trkpt lat="43.34969" lon="-0.53825">
        <ele>181.35</ele>
        <time>2018-02-18T08:35:41Z</time>
      </trkpt>
      <trkpt lat="43.34969" lon="-0.53845">
        <ele>179.42</ele>
        <time>2018-02-18T08:35:43Z</time>
      </trkpt>
      <trkpt lat="43.34968" lon="-0.53854">
        <ele>178.94</ele>
        <time>2018-02-18T08:35:44Z</time>
      </trkpt>
      <trkpt lat="43.3497" lon="-0.53904">
        <ele>177.98</ele>
        <time>2018-02-18T08:35:50Z</time>
      </trkpt>
      <trkpt lat="43.34972" lon="-0.53911">
        <ele>177.98</ele>
        <time>2018-02-18T08:35:51Z</time>
      </trkpt>
      <trkpt lat="43.34976" lon="-0.53933">
        <ele>177.98</ele>
        <time>2018-02-18T08:35:54Z</time>
      </trkpt>
      <trkpt lat="43.34987" lon="-0.53971">
        <ele>177.98</ele>
        <time>2018-02-18T08:36:00Z</time>
      </trkpt>
      <trkpt lat="43.34998" lon="-0.54011">
        <ele>177.5</ele>
        <time>2018-02-18T08:36:06Z</time>
      </trkpt>
      <trkpt lat="43.34999" lon="-0.54018">
        <ele>177.5</ele>
        <time>2018-02-18T08:36:07Z</time>
      </trkpt>
      <trkpt lat="43.34999" lon="-0.54026">
        <ele>177.02</ele>
        <time>2018-02-18T08:36:08Z</time>
      </trkpt>
      <trkpt lat="43.34998" lon="-0.54035">
        <ele>177.02</ele>
        <time>2018-02-18T08:36:09Z</time>
      </trkpt>
      <trkpt lat="43.34996" lon="-0.54042">
        <ele>177.02</ele>
        <time>2018-02-18T08:36:10Z</time>
      </trkpt>
      <trkpt lat="43.34994" lon="-0.54049">
        <ele>177.02</ele>
        <time>2018-02-18T08:36:11Z</time>
      </trkpt>
      <trkpt lat="43.34985" lon="-0.54129">
        <ele>175.1</ele>
        <time>2018-02-18T08:36:21Z</time>
      </trkpt>
      <trkpt lat="43.34985" lon="-0.54136">
        <ele>175.1</ele>
        <time>2018-02-18T08:36:22Z</time>
      </trkpt>
      <trkpt lat="43.34992" lon="-0.54175">
        <ele>175.1</ele>
        <time>2018-02-18T08:36:27Z</time>
      </trkpt>
      <trkpt lat="43.34997" lon="-0.54188">
        <ele>174.62</ele>
        <time>2018-02-18T08:36:29Z</time>
      </trkpt>
      <trkpt lat="43.35004" lon="-0.54211">
        <ele>172.69</ele>
        <time>2018-02-18T08:36:32Z</time>
      </trkpt>
      <trkpt lat="43.35005" lon="-0.5422">
        <ele>172.21</ele>
        <time>2018-02-18T08:36:33Z</time>
      </trkpt>
      <trkpt lat="43.35006" lon="-0.54228">
        <ele>171.25</ele>
        <time>2018-02-18T08:36:34Z</time>
      </trkpt>
      <trkpt lat="43.35004" lon="-0.54235">
        <ele>170.29</ele>
        <time>2018-02-18T08:36:35Z</time>
      </trkpt>
      <trkpt lat="43.35002" lon="-0.54242">
        <ele>169.33</ele>
        <time>2018-02-18T08:36:36Z</time>
      </trkpt>
      <trkpt lat="43.34997" lon="-0.54248">
        <ele>168.37</ele>
        <time>2018-02-18T08:36:37Z</time>
      </trkpt>
      <trkpt lat="43.34992" lon="-0.54255">
        <ele>167.41</ele>
        <time>2018-02-18T08:36:38Z</time>
      </trkpt>
      <trkpt lat="43.34917" lon="-0.54348">
        <ele>156.83</ele>
        <time>2018-02-18T08:36:49Z</time>
      </trkpt>
      <trkpt lat="43.34904" lon="-0.54364">
        <ele>155.87</ele>
        <time>2018-02-18T08:36:51Z</time>
      </trkpt>
      <trkpt lat="43.34896" lon="-0.54369">
        <ele>155.87</ele>
        <time>2018-02-18T08:36:52Z</time>
      </trkpt>
      <trkpt lat="43.34888" lon="-0.54372">
        <ele>155.39</ele>
        <time>2018-02-18T08:36:53Z</time>
      </trkpt>
      <trkpt lat="43.3488" lon="-0.54374">
        <ele>154.43</ele>
        <time>2018-02-18T08:36:54Z</time>
      </trkpt>
      <trkpt lat="43.34872" lon="-0.54376">
        <ele>153.95</ele>
        <time>2018-02-18T08:36:55Z</time>
      </trkpt>
      <trkpt lat="43.34864" lon="-0.5438">
        <ele>153.47</ele>
        <time>2018-02-18T08:36:56Z</time>
      </trkpt>
      <trkpt lat="43.34856" lon="-0.54385">
        <ele>152.51</ele>
        <time>2018-02-18T08:36:57Z</time>
      </trkpt>
      <trkpt lat="43.34849" lon="-0.54391">
        <ele>152.03</ele>
        <time>2018-02-18T08:36:58Z</time>
      </trkpt>
      <trkpt lat="43.34842" lon="-0.54398">
        <ele>151.54</ele>
        <time>2018-02-18T08:36:59Z</time>
      </trkpt>
      <trkpt lat="43.34759" lon="-0.5449">
        <ele>143.85</ele>
        <time>2018-02-18T08:37:11Z</time>
      </trkpt>
      <trkpt lat="43.34723" lon="-0.54535">
        <ele>139.05</ele>
        <time>2018-02-18T08:37:16Z</time>
      </trkpt>
      <trkpt lat="43.34668" lon="-0.546">
        <ele>132.32</ele>
        <time>2018-02-18T08:37:26Z</time>
      </trkpt>
      <trkpt lat="43.34657" lon="-0.54614">
        <ele>129.92</ele>
        <time>2018-02-18T08:37:30Z</time>
      </trkpt>
      <trkpt lat="43.34655" lon="-0.54614">
        <ele>129.92</ele>
        <time>2018-02-18T08:37:31Z</time>
      </trkpt>
      <trkpt lat="43.34652" lon="-0.54613">
        <ele>129.43</ele>
        <time>2018-02-18T08:37:32Z</time>
      </trkpt>
      <trkpt lat="43.34651" lon="-0.54611">
        <ele>129.92</ele>
        <time>2018-02-18T08:37:33Z</time>
      </trkpt>
      <trkpt lat="43.3465" lon="-0.54609">
        <ele>129.43</ele>
        <time>2018-02-18T08:37:34Z</time>
      </trkpt>
      <trkpt lat="43.3465" lon="-0.54606">
        <ele>129.43</ele>
        <time>2018-02-18T08:37:35Z</time>
      </trkpt>
      <trkpt lat="43.34651" lon="-0.54602">
        <ele>129.92</ele>
        <time>2018-02-18T08:37:36Z</time>
      </trkpt>
      <trkpt lat="43.34652" lon="-0.54599">
        <ele>129.92</ele>
        <time>2018-02-18T08:37:37Z</time>
      </trkpt>
      <trkpt lat="43.34658" lon="-0.54553">
        <ele>133.28</ele>
        <time>2018-02-18T08:37:48Z</time>
      </trkpt>
      <trkpt lat="43.34667" lon="-0.54494">
        <ele>133.76</ele>
        <time>2018-02-18T08:38:01Z</time>
      </trkpt>
      <trkpt lat="43.34671" lon="-0.54452">
        <ele>135.2</ele>
        <time>2018-02-18T08:38:12Z</time>
      </trkpt>
      <trkpt lat="43.34674" lon="-0.54403">
        <ele>138.57</ele>
        <time>2018-02-18T08:38:23Z</time>
      </trkpt>
      <trkpt lat="43.34679" lon="-0.54369">
        <ele>137.61</ele>
        <time>2018-02-18T08:38:32Z</time>
      </trkpt>
      <trkpt lat="43.34682" lon="-0.54361">
        <ele>137.13</ele>
        <time>2018-02-18T08:38:35Z</time>
      </trkpt>
      <trkpt lat="43.34682" lon="-0.54358">
        <ele>137.13</ele>
        <time>2018-02-18T08:38:36Z</time>
      </trkpt>
      <trkpt lat="43.34683" lon="-0.54355">
        <ele>137.13</ele>
        <time>2018-02-18T08:38:37Z</time>
      </trkpt>
      <trkpt lat="43.34691" lon="-0.54317">
        <ele>148.66</ele>
        <time>2018-02-18T08:38:51Z</time>
      </trkpt>
      <trkpt lat="43.34697" lon="-0.54295">
        <ele>165</ele>
        <time>2018-02-18T08:39:03Z</time>
      </trkpt>
      <trkpt lat="43.34707" lon="-0.54252">
        <ele>176.06</ele>
        <time>2018-02-18T08:39:19Z</time>
      </trkpt>
      <trkpt lat="43.34708" lon="-0.5424">
        <ele>177.02</ele>
        <time>2018-02-18T08:39:24Z</time>
      </trkpt>
      <trkpt lat="43.34708" lon="-0.54238">
        <ele>176.54</ele>
        <time>2018-02-18T08:39:25Z</time>
      </trkpt>
      <trkpt lat="43.34708" lon="-0.54235">
        <ele>177.02</ele>
        <time>2018-02-18T08:39:26Z</time>
      </trkpt>
      <trkpt lat="43.34707" lon="-0.54232">
        <ele>177.02</ele>
        <time>2018-02-18T08:39:27Z</time>
      </trkpt>
      <trkpt lat="43.34707" lon="-0.54229">
        <ele>176.54</ele>
        <time>2018-02-18T08:39:28Z</time>
      </trkpt>
      <trkpt lat="43.34705" lon="-0.54224">
        <ele>175.58</ele>
        <time>2018-02-18T08:39:30Z</time>
      </trkpt>
      <trkpt lat="43.34701" lon="-0.5422">
        <ele>174.14</ele>
        <time>2018-02-18T08:39:34Z</time>
      </trkpt>
      <trkpt lat="43.34679" lon="-0.54227">
        <ele>168.85</ele>
        <time>2018-02-18T08:39:48Z</time>
      </trkpt>
      <trkpt lat="43.34654" lon="-0.54235">
        <ele>165</ele>
        <time>2018-02-18T08:40:03Z</time>
      </trkpt>
      <trkpt lat="43.34635" lon="-0.54244">
        <ele>163.56</ele>
        <time>2018-02-18T08:40:17Z</time>
      </trkpt>
      <trkpt lat="43.34617" lon="-0.54251">
        <ele>164.04</ele>
        <time>2018-02-18T08:40:29Z</time>
      </trkpt>
      <trkpt lat="43.34596" lon="-0.54257">
        <ele>165.96</ele>
        <time>2018-02-18T08:40:43Z</time>
      </trkpt>
      <trkpt lat="43.34572" lon="-0.54254">
        <ele>166.45</ele>
        <time>2018-02-18T08:40:58Z</time>
      </trkpt>
      <trkpt lat="43.34556" lon="-0.54235">
        <ele>170.29</ele>
        <time>2018-02-18T08:41:12Z</time>
      </trkpt>
      <trkpt lat="43.3456" lon="-0.54212">
        <ele>174.62</ele>
        <time>2018-02-18T08:41:25Z</time>
      </trkpt>
      <trkpt lat="43.34574" lon="-0.54195">
        <ele>179.42</ele>
        <time>2018-02-18T08:41:38Z</time>
      </trkpt>
      <trkpt lat="43.3458" lon="-0.54178">
        <ele>183.27</ele>
        <time>2018-02-18T08:41:48Z</time>
      </trkpt>
      <trkpt lat="43.34579" lon="-0.54173">
        <ele>182.31</ele>
        <time>2018-02-18T08:41:51Z</time>
      </trkpt>
      <trkpt lat="43.34565" lon="-0.54153">
        <ele>177.98</ele>
        <time>2018-02-18T08:42:05Z</time>
      </trkpt>
      <trkpt lat="43.34547" lon="-0.54138">
        <ele>180.87</ele>
        <time>2018-02-18T08:42:18Z</time>
      </trkpt>
      <trkpt lat="43.34526" lon="-0.54124">
        <ele>183.27</ele>
        <time>2018-02-18T08:42:32Z</time>
      </trkpt>
      <trkpt lat="43.34499" lon="-0.54115">
        <ele>182.31</ele>
        <time>2018-02-18T08:42:47Z</time>
      </trkpt>
      <trkpt lat="43.3448" lon="-0.54103">
        <ele>179.9</ele>
        <time>2018-02-18T08:43:00Z</time>
      </trkpt>
      <trkpt lat="43.34464" lon="-0.54088">
        <ele>181.83</ele>
        <time>2018-02-18T08:43:14Z</time>
      </trkpt>
      <trkpt lat="43.34459" lon="-0.54082">
        <ele>183.75</ele>
        <time>2018-02-18T08:43:19Z</time>
      </trkpt>
      <trkpt lat="43.34458" lon="-0.54079">
        <ele>185.67</ele>
        <time>2018-02-18T08:43:21Z</time>
      </trkpt>
      <trkpt lat="43.34473" lon="-0.54067">
        <ele>195.28</ele>
        <time>2018-02-18T08:43:35Z</time>
      </trkpt>
      <trkpt lat="43.3449" lon="-0.54055">
        <ele>198.17</ele>
        <time>2018-02-18T08:43:50Z</time>
      </trkpt>
      <trkpt lat="43.34492" lon="-0.54055">
        <ele>198.65</ele>
        <time>2018-02-18T08:43:51Z</time>
      </trkpt>
      <trkpt lat="43.34508" lon="-0.54042">
        <ele>199.13</ele>
        <time>2018-02-18T08:44:05Z</time>
      </trkpt>
      <trkpt lat="43.34518" lon="-0.54023">
        <ele>203.46</ele>
        <time>2018-02-18T08:44:19Z</time>
      </trkpt>
      <trkpt lat="43.3452" lon="-0.54019">
        <ele>203.94</ele>
        <time>2018-02-18T08:44:22Z</time>
      </trkpt>
      <trkpt lat="43.34527" lon="-0.54001">
        <ele>214.51</ele>
        <time>2018-02-18T08:44:35Z</time>
      </trkpt>
      <trkpt lat="43.34528" lon="-0.53998">
        <ele>215.95</ele>
        <time>2018-02-18T08:44:37Z</time>
      </trkpt>
      <trkpt lat="43.34529" lon="-0.53986">
        <ele>218.84</ele>
        <time>2018-02-18T08:44:44Z</time>
      </trkpt>
      <trkpt lat="43.3453" lon="-0.53971">
        <ele>221.72</ele>
        <time>2018-02-18T08:44:53Z</time>
      </trkpt>
      <trkpt lat="43.34526" lon="-0.53952">
        <ele>233.26</ele>
        <time>2018-02-18T08:45:06Z</time>
      </trkpt>
      <trkpt lat="43.34523" lon="-0.53935">
        <ele>241.43</ele>
        <time>2018-02-18T08:45:17Z</time>
      </trkpt>
      <trkpt lat="43.34522" lon="-0.53933">
        <ele>241.91</ele>
        <time>2018-02-18T08:45:18Z</time>
      </trkpt>
      <trkpt lat="43.34519" lon="-0.53919">
        <ele>244.79</ele>
        <time>2018-02-18T08:45:26Z</time>
      </trkpt>
      <trkpt lat="43.34514" lon="-0.53891">
        <ele>247.68</ele>
        <time>2018-02-18T08:45:38Z</time>
      </trkpt>
      <trkpt lat="43.34514" lon="-0.53855">
        <ele>237.1</ele>
        <time>2018-02-18T08:45:51Z</time>
      </trkpt>
      <trkpt lat="43.34514" lon="-0.53853">
        <ele>236.62</ele>
        <time>2018-02-18T08:45:52Z</time>
      </trkpt>
      <trkpt lat="43.34514" lon="-0.53851">
        <ele>236.62</ele>
        <time>2018-02-18T08:45:53Z</time>
      </trkpt>
      <trkpt lat="43.34518" lon="-0.53829">
        <ele>239.99</ele>
        <time>2018-02-18T08:46:03Z</time>
      </trkpt>
      <trkpt lat="43.34526" lon="-0.53804">
        <ele>243.35</ele>
        <time>2018-02-18T08:46:14Z</time>
      </trkpt>
      <trkpt lat="43.34536" lon="-0.53773">
        <ele>240.47</ele>
        <time>2018-02-18T08:46:28Z</time>
      </trkpt>
      <trkpt lat="43.34544" lon="-0.5375">
        <ele>238.54</ele>
        <time>2018-02-18T08:46:40Z</time>
      </trkpt>
      <trkpt lat="43.34553" lon="-0.53718">
        <ele>238.54</ele>
        <time>2018-02-18T08:46:55Z</time>
      </trkpt>
      <trkpt lat="43.34554" lon="-0.53716">
        <ele>239.02</ele>
        <time>2018-02-18T08:46:56Z</time>
      </trkpt>
      <trkpt lat="43.34555" lon="-0.53714">
        <ele>239.02</ele>
        <time>2018-02-18T08:46:57Z</time>
      </trkpt>
      <trkpt lat="43.34556" lon="-0.53712">
        <ele>239.02</ele>
        <time>2018-02-18T08:46:58Z</time>
      </trkpt>
      <trkpt lat="43.34556" lon="-0.5371">
        <ele>239.51</ele>
        <time>2018-02-18T08:46:59Z</time>
      </trkpt>
      <trkpt lat="43.34557" lon="-0.53708">
        <ele>239.99</ele>
        <time>2018-02-18T08:47:00Z</time>
      </trkpt>
      <trkpt lat="43.34558" lon="-0.53706">
        <ele>239.99</ele>
        <time>2018-02-18T08:47:01Z</time>
      </trkpt>
      <trkpt lat="43.34559" lon="-0.53704">
        <ele>239.99</ele>
        <time>2018-02-18T08:47:02Z</time>
      </trkpt>
      <trkpt lat="43.34559" lon="-0.53702">
        <ele>239.99</ele>
        <time>2018-02-18T08:47:03Z</time>
      </trkpt>
      <trkpt lat="43.34559" lon="-0.53701">
        <ele>239.51</ele>
        <time>2018-02-18T08:47:04Z</time>
      </trkpt>
      <trkpt lat="43.3456" lon="-0.53699">
        <ele>239.51</ele>
        <time>2018-02-18T08:47:05Z</time>
      </trkpt>
      <trkpt lat="43.3456" lon="-0.53697">
        <ele>239.02</ele>
        <time>2018-02-18T08:47:06Z</time>
      </trkpt>
      <trkpt lat="43.34569" lon="-0.5367">
        <ele>244.31</ele>
        <time>2018-02-18T08:47:21Z</time>
      </trkpt>
      <trkpt lat="43.34573" lon="-0.53662">
        <ele>237.58</ele>
        <time>2018-02-18T08:47:37Z</time>
      </trkpt>
      <trkpt lat="43.34578" lon="-0.53658">
        <ele>234.7</ele>
        <time>2018-02-18T08:48:06Z</time>
      </trkpt>
      <trkpt lat="43.346" lon="-0.53637">
        <ele>229.89</ele>
        <time>2018-02-18T08:48:16Z</time>
      </trkpt>
      <trkpt lat="43.34612" lon="-0.53623">
        <ele>228.93</ele>
        <time>2018-02-18T08:48:19Z</time>
      </trkpt>
      <trkpt lat="43.34616" lon="-0.53617">
        <ele>228.93</ele>
        <time>2018-02-18T08:48:20Z</time>
      </trkpt>
      <trkpt lat="43.34622" lon="-0.53604">
        <ele>228.45</ele>
        <time>2018-02-18T08:48:22Z</time>
      </trkpt>
      <trkpt lat="43.34626" lon="-0.53597">
        <ele>227.97</ele>
        <time>2018-02-18T08:48:23Z</time>
      </trkpt>
      <trkpt lat="43.34656" lon="-0.53511">
        <ele>224.61</ele>
        <time>2018-02-18T08:48:33Z</time>
      </trkpt>
      <trkpt lat="43.3466" lon="-0.535">
        <ele>224.61</ele>
        <time>2018-02-18T08:48:34Z</time>
      </trkpt>
      <trkpt lat="43.34697" lon="-0.53395">
        <ele>220.28</ele>
        <time>2018-02-18T08:48:45Z</time>
      </trkpt>
      <trkpt lat="43.34699" lon="-0.53386">
        <ele>219.8</ele>
        <time>2018-02-18T08:48:46Z</time>
      </trkpt>
      <trkpt lat="43.34703" lon="-0.53351">
        <ele>219.32</ele>
        <time>2018-02-18T08:48:50Z</time>
      </trkpt>
      <trkpt lat="43.34706" lon="-0.53337">
        <ele>219.32</ele>
        <time>2018-02-18T08:48:52Z</time>
      </trkpt>
      <trkpt lat="43.34717" lon="-0.53301">
        <ele>217.88</ele>
        <time>2018-02-18T08:48:58Z</time>
      </trkpt>
      <trkpt lat="43.34719" lon="-0.53295">
        <ele>216.91</ele>
        <time>2018-02-18T08:48:59Z</time>
      </trkpt>
      <trkpt lat="43.34745" lon="-0.53238">
        <ele>210.19</ele>
        <time>2018-02-18T08:49:11Z</time>
      </trkpt>
      <trkpt lat="43.34754" lon="-0.53215">
        <ele>207.3</ele>
        <time>2018-02-18T08:49:15Z</time>
      </trkpt>
      <trkpt lat="43.34756" lon="-0.53209">
        <ele>206.82</ele>
        <time>2018-02-18T08:49:16Z</time>
      </trkpt>
      <trkpt lat="43.34758" lon="-0.53145">
        <ele>203.46</ele>
        <time>2018-02-18T08:49:29Z</time>
      </trkpt>
      <trkpt lat="43.34747" lon="-0.53119">
        <ele>205.38</ele>
        <time>2018-02-18T08:49:40Z</time>
      </trkpt>
      <trkpt lat="43.34732" lon="-0.53095">
        <ele>208.74</ele>
        <time>2018-02-18T08:49:53Z</time>
      </trkpt>
      <trkpt lat="43.34727" lon="-0.53085">
        <ele>209.7</ele>
        <time>2018-02-18T08:49:59Z</time>
      </trkpt>
      <trkpt lat="43.34726" lon="-0.53083">
        <ele>209.7</ele>
        <time>2018-02-18T08:50:00Z</time>
      </trkpt>
      <trkpt lat="43.34714" lon="-0.53071">
        <ele>210.19</ele>
        <time>2018-02-18T08:50:08Z</time>
      </trkpt>
      <trkpt lat="43.34713" lon="-0.5307">
        <ele>210.19</ele>
        <time>2018-02-18T08:50:09Z</time>
      </trkpt>
      <trkpt lat="43.34711" lon="-0.53069">
        <ele>210.19</ele>
        <time>2018-02-18T08:50:10Z</time>
      </trkpt>
      <trkpt lat="43.347" lon="-0.53062">
        <ele>209.7</ele>
        <time>2018-02-18T08:50:18Z</time>
      </trkpt>
      <trkpt lat="43.34698" lon="-0.53059">
        <ele>210.19</ele>
        <time>2018-02-18T08:50:20Z</time>
      </trkpt>
      <trkpt lat="43.34698" lon="-0.53058">
        <ele>210.19</ele>
        <time>2018-02-18T08:50:21Z</time>
      </trkpt>
      <trkpt lat="43.34681" lon="-0.53041">
        <ele>214.03</ele>
        <time>2018-02-18T08:50:34Z</time>
      </trkpt>
      <trkpt lat="43.34665" lon="-0.53026">
        <ele>216.91</ele>
        <time>2018-02-18T08:50:47Z</time>
      </trkpt>
      <trkpt lat="43.34644" lon="-0.53011">
        <ele>216.43</ele>
        <time>2018-02-18T08:50:59Z</time>
      </trkpt>
      <trkpt lat="43.34627" lon="-0.52991">
        <ele>216.91</ele>
        <time>2018-02-18T08:51:11Z</time>
      </trkpt>
      <trkpt lat="43.34616" lon="-0.5298">
        <ele>219.32</ele>
        <time>2018-02-18T08:51:19Z</time>
      </trkpt>
      <trkpt lat="43.34609" lon="-0.52975">
        <ele>221.24</ele>
        <time>2018-02-18T08:51:23Z</time>
      </trkpt>
      <trkpt lat="43.34601" lon="-0.52969">
        <ele>222.68</ele>
        <time>2018-02-18T08:51:28Z</time>
      </trkpt>
      <trkpt lat="43.34599" lon="-0.52968">
        <ele>223.16</ele>
        <time>2018-02-18T08:51:29Z</time>
      </trkpt>
      <trkpt lat="43.34597" lon="-0.52967">
        <ele>223.16</ele>
        <time>2018-02-18T08:51:30Z</time>
      </trkpt>
      <trkpt lat="43.34595" lon="-0.52965">
        <ele>223.64</ele>
        <time>2018-02-18T08:51:31Z</time>
      </trkpt>
      <trkpt lat="43.34593" lon="-0.52964">
        <ele>224.12</ele>
        <time>2018-02-18T08:51:32Z</time>
      </trkpt>
      <trkpt lat="43.34578" lon="-0.52948">
        <ele>226.05</ele>
        <time>2018-02-18T08:51:44Z</time>
      </trkpt>
      <trkpt lat="43.3456" lon="-0.52929">
        <ele>224.61</ele>
        <time>2018-02-18T08:51:55Z</time>
      </trkpt>
      <trkpt lat="43.3454" lon="-0.52913">
        <ele>225.09</ele>
        <time>2018-02-18T08:52:07Z</time>
      </trkpt>
      <trkpt lat="43.34537" lon="-0.52909">
        <ele>225.57</ele>
        <time>2018-02-18T08:52:08Z</time>
      </trkpt>
      <trkpt lat="43.34512" lon="-0.52874">
        <ele>227.01</ele>
        <time>2018-02-18T08:52:16Z</time>
      </trkpt>
      <trkpt lat="43.34507" lon="-0.52868">
        <ele>226.53</ele>
        <time>2018-02-18T08:52:18Z</time>
      </trkpt>
      <trkpt lat="43.34501" lon="-0.5286">
        <ele>227.97</ele>
        <time>2018-02-18T08:52:23Z</time>
      </trkpt>
      <trkpt lat="43.34498" lon="-0.52856">
        <ele>229.41</ele>
        <time>2018-02-18T08:52:26Z</time>
      </trkpt>
      <trkpt lat="43.3448" lon="-0.52834">
        <ele>236.14</ele>
        <time>2018-02-18T08:52:40Z</time>
      </trkpt>
      <trkpt lat="43.34473" lon="-0.5282">
        <ele>240.95</ele>
        <time>2018-02-18T08:52:47Z</time>
      </trkpt>
      <trkpt lat="43.3447" lon="-0.52811">
        <ele>243.83</ele>
        <time>2018-02-18T08:52:50Z</time>
      </trkpt>
      <trkpt lat="43.34468" lon="-0.5277">
        <ele>251.52</ele>
        <time>2018-02-18T08:53:00Z</time>
      </trkpt>
      <trkpt lat="43.34458" lon="-0.52723">
        <ele>253.93</ele>
        <time>2018-02-18T08:53:11Z</time>
      </trkpt>
      <trkpt lat="43.34457" lon="-0.52721">
        <ele>253.93</ele>
        <time>2018-02-18T08:53:12Z</time>
      </trkpt>
      <trkpt lat="43.34456" lon="-0.52718">
        <ele>253.44</ele>
        <time>2018-02-18T08:53:13Z</time>
      </trkpt>
      <trkpt lat="43.34447" lon="-0.5271">
        <ele>251.52</ele>
        <time>2018-02-18T08:53:19Z</time>
      </trkpt>
      <trkpt lat="43.34445" lon="-0.52708">
        <ele>251.04</ele>
        <time>2018-02-18T08:53:20Z</time>
      </trkpt>
      <trkpt lat="43.34444" lon="-0.52703">
        <ele>251.04</ele>
        <time>2018-02-18T08:53:21Z</time>
      </trkpt>
      <trkpt lat="43.34444" lon="-0.52698">
        <ele>250.56</ele>
        <time>2018-02-18T08:53:22Z</time>
      </trkpt>
      <trkpt lat="43.34443" lon="-0.52693">
        <ele>250.56</ele>
        <time>2018-02-18T08:53:23Z</time>
      </trkpt>
      <trkpt lat="43.34443" lon="-0.5269">
        <ele>250.56</ele>
        <time>2018-02-18T08:53:24Z</time>
      </trkpt>
      <trkpt lat="43.34442" lon="-0.52688">
        <ele>250.56</ele>
        <time>2018-02-18T08:53:25Z</time>
      </trkpt>
      <trkpt lat="43.34441" lon="-0.52686">
        <ele>250.08</ele>
        <time>2018-02-18T08:53:26Z</time>
      </trkpt>
      <trkpt lat="43.34437" lon="-0.52685">
        <ele>248.64</ele>
        <time>2018-02-18T08:53:28Z</time>
      </trkpt>
      <trkpt lat="43.3443" lon="-0.52683">
        <ele>246.72</ele>
        <time>2018-02-18T08:53:31Z</time>
      </trkpt>
      <trkpt lat="43.3443" lon="-0.5268">
        <ele>245.75</ele>
        <time>2018-02-18T08:53:32Z</time>
      </trkpt>
      <trkpt lat="43.3443" lon="-0.52676">
        <ele>245.27</ele>
        <time>2018-02-18T08:53:33Z</time>
      </trkpt>
      <trkpt lat="43.3443" lon="-0.52665">
        <ele>241.91</ele>
        <time>2018-02-18T08:53:37Z</time>
      </trkpt>
      <trkpt lat="43.34419" lon="-0.52639">
        <ele>233.74</ele>
        <time>2018-02-18T08:53:50Z</time>
      </trkpt>
      <trkpt lat="43.34419" lon="-0.52637">
        <ele>234.22</ele>
        <time>2018-02-18T08:53:51Z</time>
      </trkpt>
      <trkpt lat="43.34418" lon="-0.52626">
        <ele>235.66</ele>
        <time>2018-02-18T08:53:57Z</time>
      </trkpt>
      <trkpt lat="43.34408" lon="-0.52614">
        <ele>233.26</ele>
        <time>2018-02-18T08:54:04Z</time>
      </trkpt>
      <trkpt lat="43.34399" lon="-0.52607">
        <ele>230.37</ele>
        <time>2018-02-18T08:54:08Z</time>
      </trkpt>
      <trkpt lat="43.34398" lon="-0.52605">
        <ele>229.89</ele>
        <time>2018-02-18T08:54:09Z</time>
      </trkpt>
      <trkpt lat="43.34397" lon="-0.52604">
        <ele>229.89</ele>
        <time>2018-02-18T08:54:10Z</time>
      </trkpt>
      <trkpt lat="43.34396" lon="-0.52602">
        <ele>229.89</ele>
        <time>2018-02-18T08:54:11Z</time>
      </trkpt>
      <trkpt lat="43.34395" lon="-0.526">
        <ele>229.89</ele>
        <time>2018-02-18T08:54:12Z</time>
      </trkpt>
      <trkpt lat="43.34394" lon="-0.52598">
        <ele>229.41</ele>
        <time>2018-02-18T08:54:13Z</time>
      </trkpt>
      <trkpt lat="43.34374" lon="-0.5257">
        <ele>229.41</ele>
        <time>2018-02-18T08:54:22Z</time>
      </trkpt>
      <trkpt lat="43.34367" lon="-0.52541">
        <ele>231.81</ele>
        <time>2018-02-18T08:54:32Z</time>
      </trkpt>
      <trkpt lat="43.34355" lon="-0.52517">
        <ele>233.26</ele>
        <time>2018-02-18T08:54:42Z</time>
      </trkpt>
      <trkpt lat="43.34341" lon="-0.52492">
        <ele>231.33</ele>
        <time>2018-02-18T08:54:52Z</time>
      </trkpt>
      <trkpt lat="43.34334" lon="-0.52484">
        <ele>231.33</ele>
        <time>2018-02-18T08:54:54Z</time>
      </trkpt>
      <trkpt lat="43.34331" lon="-0.52479">
        <ele>231.33</ele>
        <time>2018-02-18T08:54:55Z</time>
      </trkpt>
      <trkpt lat="43.34328" lon="-0.52476">
        <ele>231.33</ele>
        <time>2018-02-18T08:54:56Z</time>
      </trkpt>
      <trkpt lat="43.34325" lon="-0.52473">
        <ele>231.81</ele>
        <time>2018-02-18T08:54:57Z</time>
      </trkpt>
      <trkpt lat="43.34322" lon="-0.52469">
        <ele>232.3</ele>
        <time>2018-02-18T08:54:58Z</time>
      </trkpt>
      <trkpt lat="43.34305" lon="-0.52446">
        <ele>231.81</ele>
        <time>2018-02-18T08:55:06Z</time>
      </trkpt>
      <trkpt lat="43.34298" lon="-0.5243">
        <ele>234.7</ele>
        <time>2018-02-18T08:55:12Z</time>
      </trkpt>
      <trkpt lat="43.34297" lon="-0.52428">
        <ele>235.18</ele>
        <time>2018-02-18T08:55:13Z</time>
      </trkpt>
      <trkpt lat="43.34288" lon="-0.52404">
        <ele>240.47</ele>
        <time>2018-02-18T08:55:21Z</time>
      </trkpt>
      <trkpt lat="43.34287" lon="-0.52401">
        <ele>240.95</ele>
        <time>2018-02-18T08:55:22Z</time>
      </trkpt>
      <trkpt lat="43.34286" lon="-0.52398">
        <ele>241.91</ele>
        <time>2018-02-18T08:55:23Z</time>
      </trkpt>
      <trkpt lat="43.34286" lon="-0.52396">
        <ele>242.39</ele>
        <time>2018-02-18T08:55:24Z</time>
      </trkpt>
      <trkpt lat="43.34285" lon="-0.52393">
        <ele>242.87</ele>
        <time>2018-02-18T08:55:25Z</time>
      </trkpt>
      <trkpt lat="43.34284" lon="-0.5239">
        <ele>243.35</ele>
        <time>2018-02-18T08:55:26Z</time>
      </trkpt>
      <trkpt lat="43.34284" lon="-0.52387">
        <ele>244.31</ele>
        <time>2018-02-18T08:55:27Z</time>
      </trkpt>
      <trkpt lat="43.34283" lon="-0.52385">
        <ele>244.79</ele>
        <time>2018-02-18T08:55:28Z</time>
      </trkpt>
      <trkpt lat="43.3428" lon="-0.52375">
        <ele>246.23</ele>
        <time>2018-02-18T08:55:33Z</time>
      </trkpt>
      <trkpt lat="43.3426" lon="-0.52338">
        <ele>238.06</ele>
        <time>2018-02-18T08:55:47Z</time>
      </trkpt>
      <trkpt lat="43.34234" lon="-0.52327">
        <ele>231.81</ele>
        <time>2018-02-18T08:55:59Z</time>
      </trkpt>
      <trkpt lat="43.34211" lon="-0.52319">
        <ele>229.41</ele>
        <time>2018-02-18T08:56:12Z</time>
      </trkpt>
      <trkpt lat="43.34188" lon="-0.52301">
        <ele>228.93</ele>
        <time>2018-02-18T08:56:25Z</time>
      </trkpt>
      <trkpt lat="43.34187" lon="-0.523">
        <ele>228.93</ele>
        <time>2018-02-18T08:56:26Z</time>
      </trkpt>
      <trkpt lat="43.34186" lon="-0.52299">
        <ele>228.45</ele>
        <time>2018-02-18T08:56:27Z</time>
      </trkpt>
      <trkpt lat="43.34184" lon="-0.52298">
        <ele>228.45</ele>
        <time>2018-02-18T08:56:28Z</time>
      </trkpt>
      <trkpt lat="43.34183" lon="-0.52297">
        <ele>227.97</ele>
        <time>2018-02-18T08:56:29Z</time>
      </trkpt>
      <trkpt lat="43.34182" lon="-0.52295">
        <ele>227.97</ele>
        <time>2018-02-18T08:56:30Z</time>
      </trkpt>
      <trkpt lat="43.34165" lon="-0.52277">
        <ele>231.81</ele>
        <time>2018-02-18T08:56:44Z</time>
      </trkpt>
      <trkpt lat="43.34155" lon="-0.52269">
        <ele>229.41</ele>
        <time>2018-02-18T08:56:50Z</time>
      </trkpt>
      <trkpt lat="43.34134" lon="-0.52261">
        <ele>227.01</ele>
        <time>2018-02-18T08:57:02Z</time>
      </trkpt>
      <trkpt lat="43.34122" lon="-0.52256">
        <ele>226.53</ele>
        <time>2018-02-18T08:57:06Z</time>
      </trkpt>
      <trkpt lat="43.34118" lon="-0.52252">
        <ele>225.57</ele>
        <time>2018-02-18T08:57:07Z</time>
      </trkpt>
      <trkpt lat="43.34115" lon="-0.52248">
        <ele>225.09</ele>
        <time>2018-02-18T08:57:08Z</time>
      </trkpt>
      <trkpt lat="43.34106" lon="-0.52237">
        <ele>224.12</ele>
        <time>2018-02-18T08:57:10Z</time>
      </trkpt>
      <trkpt lat="43.34082" lon="-0.52212">
        <ele>221.72</ele>
        <time>2018-02-18T08:57:16Z</time>
      </trkpt>
      <trkpt lat="43.34078" lon="-0.52209">
        <ele>221.72</ele>
        <time>2018-02-18T08:57:17Z</time>
      </trkpt>
      <trkpt lat="43.34073" lon="-0.52207">
        <ele>221.72</ele>
        <time>2018-02-18T08:57:18Z</time>
      </trkpt>
      <trkpt lat="43.34068" lon="-0.52206">
        <ele>221.72</ele>
        <time>2018-02-18T08:57:19Z</time>
      </trkpt>
      <trkpt lat="43.34063" lon="-0.52204">
        <ele>221.72</ele>
        <time>2018-02-18T08:57:20Z</time>
      </trkpt>
      <trkpt lat="43.34059" lon="-0.52201">
        <ele>221.72</ele>
        <time>2018-02-18T08:57:21Z</time>
      </trkpt>
      <trkpt lat="43.34056" lon="-0.52199">
        <ele>221.72</ele>
        <time>2018-02-18T08:57:22Z</time>
      </trkpt>
      <trkpt lat="43.34054" lon="-0.52197">
        <ele>222.2</ele>
        <time>2018-02-18T08:57:23Z</time>
      </trkpt>
      <trkpt lat="43.34051" lon="-0.52196">
        <ele>222.2</ele>
        <time>2018-02-18T08:57:24Z</time>
      </trkpt>
      <trkpt lat="43.34049" lon="-0.52194">
        <ele>222.2</ele>
        <time>2018-02-18T08:57:25Z</time>
      </trkpt>
      <trkpt lat="43.34047" lon="-0.52192">
        <ele>222.68</ele>
        <time>2018-02-18T08:57:26Z</time>
      </trkpt>
      <trkpt lat="43.34023" lon="-0.52182">
        <ele>224.12</ele>
        <time>2018-02-18T08:57:35Z</time>
      </trkpt>
      <trkpt lat="43.34014" lon="-0.52179">
        <ele>225.57</ele>
        <time>2018-02-18T08:57:39Z</time>
      </trkpt>
      <trkpt lat="43.34013" lon="-0.52179">
        <ele>225.57</ele>
        <time>2018-02-18T08:57:40Z</time>
      </trkpt>
      <trkpt lat="43.34012" lon="-0.52182">
        <ele>225.57</ele>
        <time>2018-02-18T08:57:41Z</time>
      </trkpt>
      <trkpt lat="43.34012" lon="-0.52185">
        <ele>224.61</ele>
        <time>2018-02-18T08:57:42Z</time>
      </trkpt>
      <trkpt lat="43.34013" lon="-0.52189">
        <ele>223.64</ele>
        <time>2018-02-18T08:57:43Z</time>
      </trkpt>
      <trkpt lat="43.34015" lon="-0.52195">
        <ele>222.68</ele>
        <time>2018-02-18T08:57:44Z</time>
      </trkpt>
      <trkpt lat="43.34043" lon="-0.52264">
        <ele>214.03</ele>
        <time>2018-02-18T08:57:52Z</time>
      </trkpt>
      <trkpt lat="43.34072" lon="-0.52301">
        <ele>208.74</ele>
        <time>2018-02-18T08:58:00Z</time>
      </trkpt>
      <trkpt lat="43.34082" lon="-0.52329">
        <ele>202.49</ele>
        <time>2018-02-18T08:58:11Z</time>
      </trkpt>
      <trkpt lat="43.34084" lon="-0.52338">
        <ele>199.13</ele>
        <time>2018-02-18T08:58:15Z</time>
      </trkpt>
      <trkpt lat="43.34084" lon="-0.52341">
        <ele>198.65</ele>
        <time>2018-02-18T08:58:16Z</time>
      </trkpt>
      <trkpt lat="43.34086" lon="-0.52345">
        <ele>197.69</ele>
        <time>2018-02-18T08:58:17Z</time>
      </trkpt>
      <trkpt lat="43.34087" lon="-0.5235">
        <ele>196.73</ele>
        <time>2018-02-18T08:58:18Z</time>
      </trkpt>
      <trkpt lat="43.34089" lon="-0.52354">
        <ele>196.25</ele>
        <time>2018-02-18T08:58:19Z</time>
      </trkpt>
      <trkpt lat="43.34108" lon="-0.52399">
        <ele>190</ele>
        <time>2018-02-18T08:58:31Z</time>
      </trkpt>
      <trkpt lat="43.34127" lon="-0.5245">
        <ele>182.79</ele>
        <time>2018-02-18T08:58:43Z</time>
      </trkpt>
      <trkpt lat="43.34151" lon="-0.52516">
        <ele>179.42</ele>
        <time>2018-02-18T08:58:56Z</time>
      </trkpt>
      <trkpt lat="43.34149" lon="-0.52543">
        <ele>178.94</ele>
        <time>2018-02-18T08:59:02Z</time>
      </trkpt>
      <trkpt lat="43.34101" lon="-0.52585">
        <ele>178.94</ele>
        <time>2018-02-18T08:59:16Z</time>
      </trkpt>
      <trkpt lat="43.34066" lon="-0.52608">
        <ele>182.79</ele>
        <time>2018-02-18T08:59:27Z</time>
      </trkpt>
      <trkpt lat="43.34034" lon="-0.52637">
        <ele>186.63</ele>
        <time>2018-02-18T08:59:40Z</time>
      </trkpt>
      <trkpt lat="43.34014" lon="-0.52662">
        <ele>186.63</ele>
        <time>2018-02-18T08:59:49Z</time>
      </trkpt>
      <trkpt lat="43.33996" lon="-0.52716">
        <ele>189.52</ele>
        <time>2018-02-18T09:00:02Z</time>
      </trkpt>
      <trkpt lat="43.33966" lon="-0.52799">
        <ele>194.8</ele>
        <time>2018-02-18T09:00:16Z</time>
      </trkpt>
      <trkpt lat="43.33948" lon="-0.52906">
        <ele>196.73</ele>
        <time>2018-02-18T09:00:28Z</time>
      </trkpt>
      <trkpt lat="43.33945" lon="-0.52984">
        <ele>195.28</ele>
        <time>2018-02-18T09:00:40Z</time>
      </trkpt>
      <trkpt lat="43.33955" lon="-0.53058">
        <ele>193.84</ele>
        <time>2018-02-18T09:00:55Z</time>
      </trkpt>
      <trkpt lat="43.33961" lon="-0.53127">
        <ele>195.28</ele>
        <time>2018-02-18T09:01:10Z</time>
      </trkpt>
      <trkpt lat="43.33983" lon="-0.53156">
        <ele>197.69</ele>
        <time>2018-02-18T09:01:21Z</time>
      </trkpt>
      <trkpt lat="43.33989" lon="-0.53162">
        <ele>198.65</ele>
        <time>2018-02-18T09:01:24Z</time>
      </trkpt>
      <trkpt lat="43.3399" lon="-0.53165">
        <ele>198.65</ele>
        <time>2018-02-18T09:01:25Z</time>
      </trkpt>
      <trkpt lat="43.3399" lon="-0.53169">
        <ele>198.17</ele>
        <time>2018-02-18T09:01:26Z</time>
      </trkpt>
      <trkpt lat="43.3399" lon="-0.53173">
        <ele>197.69</ele>
        <time>2018-02-18T09:01:27Z</time>
      </trkpt>
      <trkpt lat="43.33988" lon="-0.53192">
        <ele>193.84</ele>
        <time>2018-02-18T09:01:31Z</time>
      </trkpt>
      <trkpt lat="43.33974" lon="-0.53206">
        <ele>190</ele>
        <time>2018-02-18T09:01:35Z</time>
      </trkpt>
      <trkpt lat="43.33939" lon="-0.53218">
        <ele>181.35</ele>
        <time>2018-02-18T09:01:44Z</time>
      </trkpt>
      <trkpt lat="43.33931" lon="-0.53214">
        <ele>180.38</ele>
        <time>2018-02-18T09:01:48Z</time>
      </trkpt>
      <trkpt lat="43.3392" lon="-0.53211">
        <ele>179.9</ele>
        <time>2018-02-18T09:01:53Z</time>
      </trkpt>
      <trkpt lat="43.33914" lon="-0.53201">
        <ele>180.38</ele>
        <time>2018-02-18T09:01:57Z</time>
      </trkpt>
      <trkpt lat="43.33907" lon="-0.53191">
        <ele>183.27</ele>
        <time>2018-02-18T09:02:02Z</time>
      </trkpt>
      <trkpt lat="43.33899" lon="-0.53197">
        <ele>181.83</ele>
        <time>2018-02-18T09:02:08Z</time>
      </trkpt>
      <trkpt lat="43.33886" lon="-0.53198">
        <ele>181.35</ele>
        <time>2018-02-18T09:02:21Z</time>
      </trkpt>
      <trkpt lat="43.33861" lon="-0.53193">
        <ele>182.79</ele>
        <time>2018-02-18T09:02:31Z</time>
      </trkpt>
      <trkpt lat="43.33847" lon="-0.53186">
        <ele>183.75</ele>
        <time>2018-02-18T09:02:36Z</time>
      </trkpt>
      <trkpt lat="43.33841" lon="-0.53173">
        <ele>186.15</ele>
        <time>2018-02-18T09:02:41Z</time>
      </trkpt>
      <trkpt lat="43.33823" lon="-0.53167">
        <ele>187.11</ele>
        <time>2018-02-18T09:02:49Z</time>
      </trkpt>
      <trkpt lat="43.33814" lon="-0.53157">
        <ele>184.71</ele>
        <time>2018-02-18T09:02:55Z</time>
      </trkpt>
      <trkpt lat="43.33799" lon="-0.53157">
        <ele>183.75</ele>
        <time>2018-02-18T09:02:59Z</time>
      </trkpt>
      <trkpt lat="43.33771" lon="-0.53153">
        <ele>180.38</ele>
        <time>2018-02-18T09:03:06Z</time>
      </trkpt>
      <trkpt lat="43.33756" lon="-0.53165">
        <ele>175.58</ele>
        <time>2018-02-18T09:03:10Z</time>
      </trkpt>
      <trkpt lat="43.33724" lon="-0.53147">
        <ele>168.37</ele>
        <time>2018-02-18T09:03:17Z</time>
      </trkpt>
      <trkpt lat="43.33677" lon="-0.5313">
        <ele>159.72</ele>
        <time>2018-02-18T09:03:30Z</time>
      </trkpt>
      <trkpt lat="43.33659" lon="-0.53151">
        <ele>152.99</ele>
        <time>2018-02-18T09:03:35Z</time>
      </trkpt>
      <trkpt lat="43.3364" lon="-0.53158">
        <ele>148.18</ele>
        <time>2018-02-18T09:03:39Z</time>
      </trkpt>
      <trkpt lat="43.33623" lon="-0.53158">
        <ele>145.3</ele>
        <time>2018-02-18T09:03:42Z</time>
      </trkpt>
      <trkpt lat="43.33607" lon="-0.53177">
        <ele>140.01</ele>
        <time>2018-02-18T09:03:49Z</time>
      </trkpt>
      <trkpt lat="43.33599" lon="-0.53177">
        <ele>138.09</ele>
        <time>2018-02-18T09:03:51Z</time>
      </trkpt>
      <trkpt lat="43.33565" lon="-0.53169">
        <ele>133.28</ele>
        <time>2018-02-18T09:03:59Z</time>
      </trkpt>
      <trkpt lat="43.3354" lon="-0.53192">
        <ele>128.47</ele>
        <time>2018-02-18T09:04:07Z</time>
      </trkpt>
      <trkpt lat="43.33532" lon="-0.53197">
        <ele>127.51</ele>
        <time>2018-02-18T09:04:09Z</time>
      </trkpt>
      <trkpt lat="43.33494" lon="-0.53219">
        <ele>126.55</ele>
        <time>2018-02-18T09:04:20Z</time>
      </trkpt>
      <trkpt lat="43.33489" lon="-0.53227">
        <ele>124.15</ele>
        <time>2018-02-18T09:04:29Z</time>
      </trkpt>
      <trkpt lat="43.3348" lon="-0.53232">
        <ele>125.11</ele>
        <time>2018-02-18T09:04:41Z</time>
      </trkpt>
      <trkpt lat="43.33474" lon="-0.53227">
        <ele>132.8</ele>
        <time>2018-02-18T09:05:17Z</time>
      </trkpt>
      <trkpt lat="43.33475" lon="-0.53225">
        <ele>131.36</ele>
        <time>2018-02-18T09:05:46Z</time>
      </trkpt>
      <trkpt lat="43.33477" lon="-0.53229">
        <ele>127.99</ele>
        <time>2018-02-18T09:06:13Z</time>
      </trkpt>
      <trkpt lat="43.33473" lon="-0.53228">
        <ele>126.07</ele>
        <time>2018-02-18T09:06:52Z</time>
      </trkpt>
      <trkpt lat="43.33475" lon="-0.53229">
        <ele>127.51</ele>
        <time>2018-02-18T09:07:33Z</time>
      </trkpt>
      <trkpt lat="43.33477" lon="-0.53231">
        <ele>134.72</ele>
        <time>2018-02-18T09:08:07Z</time>
      </trkpt>
      <trkpt lat="43.33479" lon="-0.53233">
        <ele>137.61</ele>
        <time>2018-02-18T09:08:24Z</time>
      </trkpt>
      <trkpt lat="43.33482" lon="-0.53235">
        <ele>138.09</ele>
        <time>2018-02-18T09:08:37Z</time>
      </trkpt>
      <trkpt lat="43.335" lon="-0.53229">
        <ele>142.41</ele>
        <time>2018-02-18T09:08:53Z</time>
      </trkpt>
      <trkpt lat="43.3351" lon="-0.53232">
        <ele>144.34</ele>
        <time>2018-02-18T09:09:06Z</time>
      </trkpt>
      <trkpt lat="43.33526" lon="-0.53233">
        <ele>146.26</ele>
        <time>2018-02-18T09:09:19Z</time>
      </trkpt>
      <trkpt lat="43.33552" lon="-0.53234">
        <ele>146.74</ele>
        <time>2018-02-18T09:09:34Z</time>
      </trkpt>
      <trkpt lat="43.33572" lon="-0.53238">
        <ele>149.62</ele>
        <time>2018-02-18T09:09:46Z</time>
      </trkpt>
      <trkpt lat="43.33574" lon="-0.53239">
        <ele>150.1</ele>
        <time>2018-02-18T09:09:47Z</time>
      </trkpt>
      <trkpt lat="43.33575" lon="-0.53239">
        <ele>150.58</ele>
        <time>2018-02-18T09:09:48Z</time>
      </trkpt>
      <trkpt lat="43.33577" lon="-0.5324">
        <ele>151.06</ele>
        <time>2018-02-18T09:09:49Z</time>
      </trkpt>
      <trkpt lat="43.33578" lon="-0.5324">
        <ele>151.06</ele>
        <time>2018-02-18T09:09:50Z</time>
      </trkpt>
      <trkpt lat="43.3358" lon="-0.5324">
        <ele>151.06</ele>
        <time>2018-02-18T09:09:51Z</time>
      </trkpt>
      <trkpt lat="43.33581" lon="-0.53241">
        <ele>151.06</ele>
        <time>2018-02-18T09:09:52Z</time>
      </trkpt>
      <trkpt lat="43.33583" lon="-0.53241">
        <ele>151.54</ele>
        <time>2018-02-18T09:09:53Z</time>
      </trkpt>
      <trkpt lat="43.33584" lon="-0.53241">
        <ele>151.54</ele>
        <time>2018-02-18T09:09:54Z</time>
      </trkpt>
      <trkpt lat="43.33586" lon="-0.53241">
        <ele>151.54</ele>
        <time>2018-02-18T09:09:55Z</time>
      </trkpt>
      <trkpt lat="43.33588" lon="-0.53241">
        <ele>151.54</ele>
        <time>2018-02-18T09:09:56Z</time>
      </trkpt>
      <trkpt lat="43.33589" lon="-0.5324">
        <ele>152.03</ele>
        <time>2018-02-18T09:09:57Z</time>
      </trkpt>
      <trkpt lat="43.33607" lon="-0.53243">
        <ele>155.87</ele>
        <time>2018-02-18T09:10:10Z</time>
      </trkpt>
      <trkpt lat="43.33613" lon="-0.53244">
        <ele>156.83</ele>
        <time>2018-02-18T09:10:15Z</time>
      </trkpt>
      <trkpt lat="43.33615" lon="-0.53245">
        <ele>156.83</ele>
        <time>2018-02-18T09:10:16Z</time>
      </trkpt>
      <trkpt lat="43.33616" lon="-0.53245">
        <ele>156.83</ele>
        <time>2018-02-18T09:10:17Z</time>
      </trkpt>
      <trkpt lat="43.33619" lon="-0.53247">
        <ele>156.83</ele>
        <time>2018-02-18T09:10:19Z</time>
      </trkpt>
      <trkpt lat="43.33621" lon="-0.53247">
        <ele>156.83</ele>
        <time>2018-02-18T09:10:20Z</time>
      </trkpt>
      <trkpt lat="43.33623" lon="-0.53247">
        <ele>156.83</ele>
        <time>2018-02-18T09:10:21Z</time>
      </trkpt>
      <trkpt lat="43.33644" lon="-0.53253">
        <ele>155.87</ele>
        <time>2018-02-18T09:10:34Z</time>
      </trkpt>
      <trkpt lat="43.33666" lon="-0.53274">
        <ele>156.83</ele>
        <time>2018-02-18T09:10:50Z</time>
      </trkpt>
      <trkpt lat="43.33685" lon="-0.53294">
        <ele>157.79</ele>
        <time>2018-02-18T09:11:05Z</time>
      </trkpt>
      <trkpt lat="43.33706" lon="-0.53312">
        <ele>158.27</ele>
        <time>2018-02-18T09:11:20Z</time>
      </trkpt>
      <trkpt lat="43.33724" lon="-0.53308">
        <ele>160.68</ele>
        <time>2018-02-18T09:11:33Z</time>
      </trkpt>
      <trkpt lat="43.33749" lon="-0.53305">
        <ele>168.37</ele>
        <time>2018-02-18T09:11:50Z</time>
      </trkpt>
      <trkpt lat="43.33768" lon="-0.53307">
        <ele>169.33</ele>
        <time>2018-02-18T09:12:04Z</time>
      </trkpt>
      <trkpt lat="43.33784" lon="-0.53307">
        <ele>169.81</ele>
        <time>2018-02-18T09:12:15Z</time>
      </trkpt>
      <trkpt lat="43.338" lon="-0.53307">
        <ele>174.62</ele>
        <time>2018-02-18T09:12:26Z</time>
      </trkpt>
      <trkpt lat="43.33802" lon="-0.53307">
        <ele>175.58</ele>
        <time>2018-02-18T09:12:28Z</time>
      </trkpt>
      <trkpt lat="43.33804" lon="-0.53307">
        <ele>175.58</ele>
        <time>2018-02-18T09:12:29Z</time>
      </trkpt>
      <trkpt lat="43.33805" lon="-0.53307">
        <ele>176.06</ele>
        <time>2018-02-18T09:12:30Z</time>
      </trkpt>
      <trkpt lat="43.33823" lon="-0.53306">
        <ele>179.9</ele>
        <time>2018-02-18T09:12:44Z</time>
      </trkpt>
      <trkpt lat="43.3384" lon="-0.53307">
        <ele>183.27</ele>
        <time>2018-02-18T09:12:58Z</time>
      </trkpt>
      <trkpt lat="43.33851" lon="-0.53304">
        <ele>180.87</ele>
        <time>2018-02-18T09:13:09Z</time>
      </trkpt>
      <trkpt lat="43.33853" lon="-0.53304">
        <ele>181.35</ele>
        <time>2018-02-18T09:13:10Z</time>
      </trkpt>
      <trkpt lat="43.33855" lon="-0.53305">
        <ele>181.83</ele>
        <time>2018-02-18T09:13:11Z</time>
      </trkpt>
      <trkpt lat="43.33871" lon="-0.53305">
        <ele>182.31</ele>
        <time>2018-02-18T09:13:23Z</time>
      </trkpt>
      <trkpt lat="43.33886" lon="-0.53306">
        <ele>184.23</ele>
        <time>2018-02-18T09:13:34Z</time>
      </trkpt>
      <trkpt lat="43.33904" lon="-0.53309">
        <ele>184.71</ele>
        <time>2018-02-18T09:13:48Z</time>
      </trkpt>
      <trkpt lat="43.33924" lon="-0.53318">
        <ele>184.23</ele>
        <time>2018-02-18T09:14:02Z</time>
      </trkpt>
      <trkpt lat="43.33929" lon="-0.53317">
        <ele>183.75</ele>
        <time>2018-02-18T09:14:06Z</time>
      </trkpt>
      <trkpt lat="43.33933" lon="-0.53317">
        <ele>183.27</ele>
        <time>2018-02-18T09:14:09Z</time>
      </trkpt>
      <trkpt lat="43.33947" lon="-0.53312">
        <ele>181.83</ele>
        <time>2018-02-18T09:14:21Z</time>
      </trkpt>
      <trkpt lat="43.33965" lon="-0.53306">
        <ele>183.75</ele>
        <time>2018-02-18T09:14:35Z</time>
      </trkpt>
      <trkpt lat="43.33984" lon="-0.53309">
        <ele>189.52</ele>
        <time>2018-02-18T09:14:49Z</time>
      </trkpt>
      <trkpt lat="43.33986" lon="-0.5331">
        <ele>190</ele>
        <time>2018-02-18T09:14:50Z</time>
      </trkpt>
      <trkpt lat="43.33992" lon="-0.53312">
        <ele>190.96</ele>
        <time>2018-02-18T09:14:55Z</time>
      </trkpt>
      <trkpt lat="43.33994" lon="-0.53312">
        <ele>190.96</ele>
        <time>2018-02-18T09:14:56Z</time>
      </trkpt>
      <trkpt lat="43.33995" lon="-0.53312">
        <ele>190.96</ele>
        <time>2018-02-18T09:14:57Z</time>
      </trkpt>
      <trkpt lat="43.33997" lon="-0.53312">
        <ele>190.96</ele>
        <time>2018-02-18T09:14:58Z</time>
      </trkpt>
      <trkpt lat="43.33998" lon="-0.53311">
        <ele>191.44</ele>
        <time>2018-02-18T09:14:59Z</time>
      </trkpt>
      <trkpt lat="43.33999" lon="-0.53311">
        <ele>191.44</ele>
        <time>2018-02-18T09:15:00Z</time>
      </trkpt>
      <trkpt lat="43.34001" lon="-0.53311">
        <ele>191.92</ele>
        <time>2018-02-18T09:15:01Z</time>
      </trkpt>
      <trkpt lat="43.34017" lon="-0.53312">
        <ele>196.73</ele>
        <time>2018-02-18T09:15:13Z</time>
      </trkpt>
      <trkpt lat="43.34019" lon="-0.53312">
        <ele>197.21</ele>
        <time>2018-02-18T09:15:14Z</time>
      </trkpt>
      <trkpt lat="43.3402" lon="-0.53312">
        <ele>197.69</ele>
        <time>2018-02-18T09:15:15Z</time>
      </trkpt>
      <trkpt lat="43.34022" lon="-0.53311">
        <ele>197.69</ele>
        <time>2018-02-18T09:15:16Z</time>
      </trkpt>
      <trkpt lat="43.34024" lon="-0.53311">
        <ele>198.17</ele>
        <time>2018-02-18T09:15:17Z</time>
      </trkpt>
      <trkpt lat="43.34037" lon="-0.53309">
        <ele>203.46</ele>
        <time>2018-02-18T09:15:29Z</time>
      </trkpt>
      <trkpt lat="43.34047" lon="-0.53307">
        <ele>205.38</ele>
        <time>2018-02-18T09:15:41Z</time>
      </trkpt>
      <trkpt lat="43.34053" lon="-0.53306">
        <ele>211.15</ele>
        <time>2018-02-18T09:16:03Z</time>
      </trkpt>
      <trkpt lat="43.3405" lon="-0.53306">
        <ele>205.86</ele>
        <time>2018-02-18T09:16:28Z</time>
      </trkpt>
      <trkpt lat="43.34054" lon="-0.53307">
        <ele>205.38</ele>
        <time>2018-02-18T09:17:01Z</time>
      </trkpt>
      <trkpt lat="43.34055" lon="-0.53307">
        <ele>206.82</ele>
        <time>2018-02-18T09:17:07Z</time>
      </trkpt>
      <trkpt lat="43.34056" lon="-0.53305">
        <ele>206.82</ele>
        <time>2018-02-18T09:17:08Z</time>
      </trkpt>
      <trkpt lat="43.34057" lon="-0.53304">
        <ele>206.82</ele>
        <time>2018-02-18T09:17:09Z</time>
      </trkpt>
      <trkpt lat="43.34058" lon="-0.53302">
        <ele>206.82</ele>
        <time>2018-02-18T09:17:10Z</time>
      </trkpt>
      <trkpt lat="43.34058" lon="-0.53301">
        <ele>207.3</ele>
        <time>2018-02-18T09:17:11Z</time>
      </trkpt>
      <trkpt lat="43.34059" lon="-0.533">
        <ele>207.3</ele>
        <time>2018-02-18T09:17:12Z</time>
      </trkpt>
      <trkpt lat="43.3406" lon="-0.53298">
        <ele>207.3</ele>
        <time>2018-02-18T09:17:13Z</time>
      </trkpt>
      <trkpt lat="43.34061" lon="-0.53297">
        <ele>207.3</ele>
        <time>2018-02-18T09:17:14Z</time>
      </trkpt>
      <trkpt lat="43.34061" lon="-0.53295">
        <ele>207.78</ele>
        <time>2018-02-18T09:17:15Z</time>
      </trkpt>
      <trkpt lat="43.34062" lon="-0.53294">
        <ele>207.78</ele>
        <time>2018-02-18T09:17:16Z</time>
      </trkpt>
      <trkpt lat="43.34063" lon="-0.53292">
        <ele>207.78</ele>
        <time>2018-02-18T09:17:17Z</time>
      </trkpt>
      <trkpt lat="43.3407" lon="-0.53284">
        <ele>209.22</ele>
        <time>2018-02-18T09:17:25Z</time>
      </trkpt>
      <trkpt lat="43.34072" lon="-0.53283">
        <ele>209.7</ele>
        <time>2018-02-18T09:17:26Z</time>
      </trkpt>
      <trkpt lat="43.34088" lon="-0.5327">
        <ele>212.59</ele>
        <time>2018-02-18T09:17:39Z</time>
      </trkpt>
      <trkpt lat="43.3409" lon="-0.53269">
        <ele>213.07</ele>
        <time>2018-02-18T09:17:40Z</time>
      </trkpt>
      <trkpt lat="43.34091" lon="-0.53267">
        <ele>213.07</ele>
        <time>2018-02-18T09:17:41Z</time>
      </trkpt>
      <trkpt lat="43.34093" lon="-0.53266">
        <ele>213.55</ele>
        <time>2018-02-18T09:17:42Z</time>
      </trkpt>
      <trkpt lat="43.34094" lon="-0.53265">
        <ele>214.03</ele>
        <time>2018-02-18T09:17:43Z</time>
      </trkpt>
      <trkpt lat="43.34095" lon="-0.53264">
        <ele>214.51</ele>
        <time>2018-02-18T09:17:44Z</time>
      </trkpt>
      <trkpt lat="43.34097" lon="-0.53263">
        <ele>214.99</ele>
        <time>2018-02-18T09:17:45Z</time>
      </trkpt>
      <trkpt lat="43.34098" lon="-0.53261">
        <ele>215.47</ele>
        <time>2018-02-18T09:17:46Z</time>
      </trkpt>
      <trkpt lat="43.34107" lon="-0.53254">
        <ele>218.84</ele>
        <time>2018-02-18T09:17:55Z</time>
      </trkpt>
      <trkpt lat="43.34108" lon="-0.53253">
        <ele>218.84</ele>
        <time>2018-02-18T09:17:56Z</time>
      </trkpt>
      <trkpt lat="43.34115" lon="-0.53249">
        <ele>219.8</ele>
        <time>2018-02-18T09:18:01Z</time>
      </trkpt>
      <trkpt lat="43.34125" lon="-0.53228">
        <ele>221.24</ele>
        <time>2018-02-18T09:18:14Z</time>
      </trkpt>
      <trkpt lat="43.34135" lon="-0.5321">
        <ele>221.24</ele>
        <time>2018-02-18T09:18:25Z</time>
      </trkpt>
      <trkpt lat="43.34135" lon="-0.53208">
        <ele>221.72</ele>
        <time>2018-02-18T09:18:26Z</time>
      </trkpt>
      <trkpt lat="43.3414" lon="-0.53195">
        <ele>222.2</ele>
        <time>2018-02-18T09:18:33Z</time>
      </trkpt>
      <trkpt lat="43.3414" lon="-0.53193">
        <ele>222.2</ele>
        <time>2018-02-18T09:18:34Z</time>
      </trkpt>
      <trkpt lat="43.34141" lon="-0.53191">
        <ele>222.2</ele>
        <time>2018-02-18T09:18:35Z</time>
      </trkpt>
      <trkpt lat="43.34142" lon="-0.53189">
        <ele>222.2</ele>
        <time>2018-02-18T09:18:36Z</time>
      </trkpt>
      <trkpt lat="43.34143" lon="-0.53182">
        <ele>220.28</ele>
        <time>2018-02-18T09:18:47Z</time>
      </trkpt>
      <trkpt lat="43.34144" lon="-0.5318">
        <ele>221.72</ele>
        <time>2018-02-18T09:18:55Z</time>
      </trkpt>
      <trkpt lat="43.34156" lon="-0.53177">
        <ele>222.68</ele>
        <time>2018-02-18T09:19:07Z</time>
      </trkpt>
      <trkpt lat="43.34157" lon="-0.53176">
        <ele>223.16</ele>
        <time>2018-02-18T09:19:08Z</time>
      </trkpt>
      <trkpt lat="43.34157" lon="-0.53175">
        <ele>223.64</ele>
        <time>2018-02-18T09:19:09Z</time>
      </trkpt>
      <trkpt lat="43.34157" lon="-0.53171">
        <ele>224.12</ele>
        <time>2018-02-18T09:19:13Z</time>
      </trkpt>
      <trkpt lat="43.34157" lon="-0.5317">
        <ele>224.61</ele>
        <time>2018-02-18T09:19:14Z</time>
      </trkpt>
      <trkpt lat="43.34156" lon="-0.53167">
        <ele>224.61</ele>
        <time>2018-02-18T09:19:16Z</time>
      </trkpt>
      <trkpt lat="43.34158" lon="-0.53155">
        <ele>225.09</ele>
        <time>2018-02-18T09:19:25Z</time>
      </trkpt>
      <trkpt lat="43.34159" lon="-0.53153">
        <ele>225.09</ele>
        <time>2018-02-18T09:19:26Z</time>
      </trkpt>
      <trkpt lat="43.3416" lon="-0.53151">
        <ele>225.09</ele>
        <time>2018-02-18T09:19:27Z</time>
      </trkpt>
      <trkpt lat="43.3416" lon="-0.53149">
        <ele>225.09</ele>
        <time>2018-02-18T09:19:28Z</time>
      </trkpt>
      <trkpt lat="43.34161" lon="-0.53147">
        <ele>225.09</ele>
        <time>2018-02-18T09:19:29Z</time>
      </trkpt>
      <trkpt lat="43.34165" lon="-0.53136">
        <ele>226.53</ele>
        <time>2018-02-18T09:19:36Z</time>
      </trkpt>
      <trkpt lat="43.34166" lon="-0.53135">
        <ele>226.53</ele>
        <time>2018-02-18T09:19:37Z</time>
      </trkpt>
      <trkpt lat="43.34166" lon="-0.53134">
        <ele>227.01</ele>
        <time>2018-02-18T09:19:38Z</time>
      </trkpt>
      <trkpt lat="43.34173" lon="-0.53115">
        <ele>226.05</ele>
        <time>2018-02-18T09:19:51Z</time>
      </trkpt>
      <trkpt lat="43.34177" lon="-0.53106">
        <ele>226.05</ele>
        <time>2018-02-18T09:19:57Z</time>
      </trkpt>
      <trkpt lat="43.34193" lon="-0.53081">
        <ele>231.33</ele>
        <time>2018-02-18T09:20:13Z</time>
      </trkpt>
      <trkpt lat="43.34203" lon="-0.53064">
        <ele>235.18</ele>
        <time>2018-02-18T09:20:26Z</time>
      </trkpt>
      <trkpt lat="43.34207" lon="-0.53057">
        <ele>235.18</ele>
        <time>2018-02-18T09:20:32Z</time>
      </trkpt>
      <trkpt lat="43.34207" lon="-0.53055">
        <ele>235.18</ele>
        <time>2018-02-18T09:20:33Z</time>
      </trkpt>
      <trkpt lat="43.34208" lon="-0.53053">
        <ele>235.18</ele>
        <time>2018-02-18T09:20:34Z</time>
      </trkpt>
      <trkpt lat="43.34208" lon="-0.53052">
        <ele>234.7</ele>
        <time>2018-02-18T09:20:35Z</time>
      </trkpt>
      <trkpt lat="43.34209" lon="-0.5305">
        <ele>234.7</ele>
        <time>2018-02-18T09:20:36Z</time>
      </trkpt>
      <trkpt lat="43.3421" lon="-0.53048">
        <ele>234.7</ele>
        <time>2018-02-18T09:20:37Z</time>
      </trkpt>
      <trkpt lat="43.34216" lon="-0.53041">
        <ele>233.74</ele>
        <time>2018-02-18T09:20:49Z</time>
      </trkpt>
      <trkpt lat="43.34218" lon="-0.53039">
        <ele>236.14</ele>
        <time>2018-02-18T09:21:13Z</time>
      </trkpt>
      <trkpt lat="43.34221" lon="-0.53038">
        <ele>236.14</ele>
        <time>2018-02-18T09:21:14Z</time>
      </trkpt>
      <trkpt lat="43.34223" lon="-0.53036">
        <ele>235.66</ele>
        <time>2018-02-18T09:21:15Z</time>
      </trkpt>
      <trkpt lat="43.34226" lon="-0.53033">
        <ele>235.18</ele>
        <time>2018-02-18T09:21:16Z</time>
      </trkpt>
      <trkpt lat="43.3423" lon="-0.5303">
        <ele>234.7</ele>
        <time>2018-02-18T09:21:17Z</time>
      </trkpt>
      <trkpt lat="43.34234" lon="-0.53026">
        <ele>234.22</ele>
        <time>2018-02-18T09:21:18Z</time>
      </trkpt>
      <trkpt lat="43.34237" lon="-0.53023">
        <ele>233.74</ele>
        <time>2018-02-18T09:21:19Z</time>
      </trkpt>
      <trkpt lat="43.34258" lon="-0.52998">
        <ele>232.78</ele>
        <time>2018-02-18T09:21:30Z</time>
      </trkpt>
      <trkpt lat="43.34269" lon="-0.52972">
        <ele>231.81</ele>
        <time>2018-02-18T09:21:40Z</time>
      </trkpt>
      <trkpt lat="43.34278" lon="-0.52951">
        <ele>233.26</ele>
        <time>2018-02-18T09:21:47Z</time>
      </trkpt>
      <trkpt lat="43.34282" lon="-0.5294">
        <ele>235.18</ele>
        <time>2018-02-18T09:21:51Z</time>
      </trkpt>
      <trkpt lat="43.34298" lon="-0.52924">
        <ele>238.06</ele>
        <time>2018-02-18T09:22:00Z</time>
      </trkpt>
      <trkpt lat="43.34314" lon="-0.52912">
        <ele>241.91</ele>
        <time>2018-02-18T09:22:08Z</time>
      </trkpt>
      <trkpt lat="43.34327" lon="-0.52893">
        <ele>242.39</ele>
        <time>2018-02-18T09:22:20Z</time>
      </trkpt>
      <trkpt lat="43.34337" lon="-0.52884">
        <ele>241.91</ele>
        <time>2018-02-18T09:22:27Z</time>
      </trkpt>
      <trkpt lat="43.34357" lon="-0.52857">
        <ele>238.06</ele>
        <time>2018-02-18T09:22:40Z</time>
      </trkpt>
      <trkpt lat="43.34361" lon="-0.52848">
        <ele>237.58</ele>
        <time>2018-02-18T09:22:43Z</time>
      </trkpt>
      <trkpt lat="43.3437" lon="-0.52827">
        <ele>238.06</ele>
        <time>2018-02-18T09:22:51Z</time>
      </trkpt>
      <trkpt lat="43.34392" lon="-0.52809">
        <ele>239.51</ele>
        <time>2018-02-18T09:23:02Z</time>
      </trkpt>
      <trkpt lat="43.34403" lon="-0.52806">
        <ele>241.91</ele>
        <time>2018-02-18T09:23:07Z</time>
      </trkpt>
      <trkpt lat="43.3441" lon="-0.52811">
        <ele>242.39</ele>
        <time>2018-02-18T09:23:11Z</time>
      </trkpt>
      <trkpt lat="43.34423" lon="-0.52841">
        <ele>242.39</ele>
        <time>2018-02-18T09:23:22Z</time>
      </trkpt>
      <trkpt lat="43.34433" lon="-0.52869">
        <ele>241.91</ele>
        <time>2018-02-18T09:23:32Z</time>
      </trkpt>
      <trkpt lat="43.34442" lon="-0.52895">
        <ele>239.99</ele>
        <time>2018-02-18T09:23:43Z</time>
      </trkpt>
      <trkpt lat="43.34445" lon="-0.529">
        <ele>240.47</ele>
        <time>2018-02-18T09:23:46Z</time>
      </trkpt>
      <trkpt lat="43.34445" lon="-0.52902">
        <ele>240.47</ele>
        <time>2018-02-18T09:23:47Z</time>
      </trkpt>
      <trkpt lat="43.34447" lon="-0.52904">
        <ele>240.47</ele>
        <time>2018-02-18T09:23:48Z</time>
      </trkpt>
      <trkpt lat="43.34448" lon="-0.52907">
        <ele>240.95</ele>
        <time>2018-02-18T09:23:49Z</time>
      </trkpt>
      <trkpt lat="43.34449" lon="-0.52908">
        <ele>240.95</ele>
        <time>2018-02-18T09:23:50Z</time>
      </trkpt>
      <trkpt lat="43.3445" lon="-0.5291">
        <ele>241.43</ele>
        <time>2018-02-18T09:23:51Z</time>
      </trkpt>
      <trkpt lat="43.34451" lon="-0.52912">
        <ele>241.91</ele>
        <time>2018-02-18T09:23:52Z</time>
      </trkpt>
      <trkpt lat="43.34452" lon="-0.52913">
        <ele>242.39</ele>
        <time>2018-02-18T09:23:53Z</time>
      </trkpt>
      <trkpt lat="43.34456" lon="-0.5292">
        <ele>242.87</ele>
        <time>2018-02-18T09:23:58Z</time>
      </trkpt>
      <trkpt lat="43.34456" lon="-0.52922">
        <ele>242.87</ele>
        <time>2018-02-18T09:23:59Z</time>
      </trkpt>
      <trkpt lat="43.34457" lon="-0.52924">
        <ele>242.87</ele>
        <time>2018-02-18T09:24:00Z</time>
      </trkpt>
      <trkpt lat="43.34458" lon="-0.52925">
        <ele>242.87</ele>
        <time>2018-02-18T09:24:01Z</time>
      </trkpt>
      <trkpt lat="43.34459" lon="-0.52926">
        <ele>243.35</ele>
        <time>2018-02-18T09:24:02Z</time>
      </trkpt>
      <trkpt lat="43.34468" lon="-0.52938">
        <ele>244.31</ele>
        <time>2018-02-18T09:24:12Z</time>
      </trkpt>
      <trkpt lat="43.34469" lon="-0.52939">
        <ele>244.31</ele>
        <time>2018-02-18T09:24:13Z</time>
      </trkpt>
      <trkpt lat="43.3447" lon="-0.5294">
        <ele>244.79</ele>
        <time>2018-02-18T09:24:14Z</time>
      </trkpt>
      <trkpt lat="43.34481" lon="-0.52954">
        <ele>247.68</ele>
        <time>2018-02-18T09:24:26Z</time>
      </trkpt>
      <trkpt lat="43.34488" lon="-0.52964">
        <ele>248.64</ele>
        <time>2018-02-18T09:24:38Z</time>
      </trkpt>
      <trkpt lat="43.34494" lon="-0.52974">
        <ele>251.04</ele>
        <time>2018-02-18T09:24:51Z</time>
      </trkpt>
      <trkpt lat="43.34501" lon="-0.5299">
        <ele>254.41</ele>
        <time>2018-02-18T09:25:07Z</time>
      </trkpt>
      <trkpt lat="43.34509" lon="-0.53004">
        <ele>257.77</ele>
        <time>2018-02-18T09:25:24Z</time>
      </trkpt>
      <trkpt lat="43.34514" lon="-0.53011">
        <ele>259.21</ele>
        <time>2018-02-18T09:25:37Z</time>
      </trkpt>
      <trkpt lat="43.34516" lon="-0.53014">
        <ele>256.81</ele>
        <time>2018-02-18T09:25:57Z</time>
      </trkpt>
      <trkpt lat="43.34516" lon="-0.53015">
        <ele>256.81</ele>
        <time>2018-02-18T09:25:59Z</time>
      </trkpt>
      <trkpt lat="43.34522" lon="-0.5302">
        <ele>257.77</ele>
        <time>2018-02-18T09:26:06Z</time>
      </trkpt>
      <trkpt lat="43.34532" lon="-0.53042">
        <ele>256.81</ele>
        <time>2018-02-18T09:26:19Z</time>
      </trkpt>
      <trkpt lat="43.34547" lon="-0.53082">
        <ele>258.25</ele>
        <time>2018-02-18T09:26:29Z</time>
      </trkpt>
      <trkpt lat="43.34547" lon="-0.53088">
        <ele>257.77</ele>
        <time>2018-02-18T09:26:30Z</time>
      </trkpt>
      <trkpt lat="43.34548" lon="-0.53103">
        <ele>256.81</ele>
        <time>2018-02-18T09:26:32Z</time>
      </trkpt>
      <trkpt lat="43.34554" lon="-0.53138">
        <ele>254.41</ele>
        <time>2018-02-18T09:26:36Z</time>
      </trkpt>
      <trkpt lat="43.34558" lon="-0.53163">
        <ele>252</ele>
        <time>2018-02-18T09:26:39Z</time>
      </trkpt>
      <trkpt lat="43.34558" lon="-0.53171">
        <ele>251.04</ele>
        <time>2018-02-18T09:26:40Z</time>
      </trkpt>
      <trkpt lat="43.34558" lon="-0.53179">
        <ele>250.08</ele>
        <time>2018-02-18T09:26:41Z</time>
      </trkpt>
      <trkpt lat="43.34557" lon="-0.53187">
        <ele>249.12</ele>
        <time>2018-02-18T09:26:42Z</time>
      </trkpt>
      <trkpt lat="43.34558" lon="-0.53196">
        <ele>248.16</ele>
        <time>2018-02-18T09:26:43Z</time>
      </trkpt>
      <trkpt lat="43.34558" lon="-0.53204">
        <ele>247.2</ele>
        <time>2018-02-18T09:26:44Z</time>
      </trkpt>
      <trkpt lat="43.34559" lon="-0.53211">
        <ele>246.23</ele>
        <time>2018-02-18T09:26:45Z</time>
      </trkpt>
      <trkpt lat="43.3456" lon="-0.53218">
        <ele>245.27</ele>
        <time>2018-02-18T09:26:46Z</time>
      </trkpt>
      <trkpt lat="43.34561" lon="-0.5323">
        <ele>243.35</ele>
        <time>2018-02-18T09:26:48Z</time>
      </trkpt>
      <trkpt lat="43.34564" lon="-0.53243">
        <ele>241.43</ele>
        <time>2018-02-18T09:26:50Z</time>
      </trkpt>
      <trkpt lat="43.34565" lon="-0.53251">
        <ele>240.95</ele>
        <time>2018-02-18T09:26:51Z</time>
      </trkpt>
      <trkpt lat="43.34567" lon="-0.53258">
        <ele>240.47</ele>
        <time>2018-02-18T09:26:52Z</time>
      </trkpt>
      <trkpt lat="43.34569" lon="-0.53266">
        <ele>239.99</ele>
        <time>2018-02-18T09:26:53Z</time>
      </trkpt>
      <trkpt lat="43.3457" lon="-0.53273">
        <ele>239.51</ele>
        <time>2018-02-18T09:26:54Z</time>
      </trkpt>
      <trkpt lat="43.34571" lon="-0.5328">
        <ele>239.51</ele>
        <time>2018-02-18T09:26:55Z</time>
      </trkpt>
      <trkpt lat="43.34571" lon="-0.53286">
        <ele>239.02</ele>
        <time>2018-02-18T09:26:56Z</time>
      </trkpt>
      <trkpt lat="43.34571" lon="-0.53292">
        <ele>238.54</ele>
        <time>2018-02-18T09:26:57Z</time>
      </trkpt>
      <trkpt lat="43.34576" lon="-0.53341">
        <ele>233.26</ele>
        <time>2018-02-18T09:27:06Z</time>
      </trkpt>
      <trkpt lat="43.34577" lon="-0.53348">
        <ele>232.78</ele>
        <time>2018-02-18T09:27:07Z</time>
      </trkpt>
      <trkpt lat="43.34579" lon="-0.53363">
        <ele>231.81</ele>
        <time>2018-02-18T09:27:09Z</time>
      </trkpt>
      <trkpt lat="43.3459" lon="-0.53467">
        <ele>224.12</ele>
        <time>2018-02-18T09:27:18Z</time>
      </trkpt>
      <trkpt lat="43.3459" lon="-0.53535">
        <ele>218.84</ele>
        <time>2018-02-18T09:27:23Z</time>
      </trkpt>
      <trkpt lat="43.34589" lon="-0.53547">
        <ele>217.88</ele>
        <time>2018-02-18T09:27:24Z</time>
      </trkpt>
      <trkpt lat="43.34586" lon="-0.5356">
        <ele>216.91</ele>
        <time>2018-02-18T09:27:25Z</time>
      </trkpt>
      <trkpt lat="43.34544" lon="-0.53728">
        <ele>203.94</ele>
        <time>2018-02-18T09:27:37Z</time>
      </trkpt>
      <trkpt lat="43.34523" lon="-0.53788">
        <ele>199.13</ele>
        <time>2018-02-18T09:27:42Z</time>
      </trkpt>
      <trkpt lat="43.3452" lon="-0.53795">
        <ele>198.17</ele>
        <time>2018-02-18T09:27:43Z</time>
      </trkpt>
      <trkpt lat="43.34518" lon="-0.53802">
        <ele>197.21</ele>
        <time>2018-02-18T09:27:44Z</time>
      </trkpt>
      <trkpt lat="43.34517" lon="-0.53808">
        <ele>196.25</ele>
        <time>2018-02-18T09:27:45Z</time>
      </trkpt>
      <trkpt lat="43.34517" lon="-0.53814">
        <ele>195.77</ele>
        <time>2018-02-18T09:27:46Z</time>
      </trkpt>
      <trkpt lat="43.34512" lon="-0.53864">
        <ele>190</ele>
        <time>2018-02-18T09:27:57Z</time>
      </trkpt>
      <trkpt lat="43.34513" lon="-0.5387">
        <ele>190</ele>
        <time>2018-02-18T09:27:58Z</time>
      </trkpt>
      <trkpt lat="43.34515" lon="-0.53876">
        <ele>190</ele>
        <time>2018-02-18T09:27:59Z</time>
      </trkpt>
      <trkpt lat="43.34523" lon="-0.53908">
        <ele>187.11</ele>
        <time>2018-02-18T09:28:03Z</time>
      </trkpt>
      <trkpt lat="43.34525" lon="-0.53918">
        <ele>185.67</ele>
        <time>2018-02-18T09:28:04Z</time>
      </trkpt>
      <trkpt lat="43.34527" lon="-0.53928">
        <ele>184.23</ele>
        <time>2018-02-18T09:28:05Z</time>
      </trkpt>
      <trkpt lat="43.34529" lon="-0.53938">
        <ele>183.27</ele>
        <time>2018-02-18T09:28:06Z</time>
      </trkpt>
      <trkpt lat="43.3453" lon="-0.53948">
        <ele>181.83</ele>
        <time>2018-02-18T09:28:07Z</time>
      </trkpt>
      <trkpt lat="43.34531" lon="-0.53958">
        <ele>180.38</ele>
        <time>2018-02-18T09:28:08Z</time>
      </trkpt>
      <trkpt lat="43.34531" lon="-0.53967">
        <ele>179.42</ele>
        <time>2018-02-18T09:28:09Z</time>
      </trkpt>
      <trkpt lat="43.34529" lon="-0.53976">
        <ele>178.46</ele>
        <time>2018-02-18T09:28:10Z</time>
      </trkpt>
      <trkpt lat="43.34527" lon="-0.53984">
        <ele>177.5</ele>
        <time>2018-02-18T09:28:11Z</time>
      </trkpt>
      <trkpt lat="43.34525" lon="-0.53992">
        <ele>176.54</ele>
        <time>2018-02-18T09:28:12Z</time>
      </trkpt>
      <trkpt lat="43.34521" lon="-0.54">
        <ele>176.06</ele>
        <time>2018-02-18T09:28:13Z</time>
      </trkpt>
      <trkpt lat="43.34518" lon="-0.54008">
        <ele>175.1</ele>
        <time>2018-02-18T09:28:14Z</time>
      </trkpt>
      <trkpt lat="43.34514" lon="-0.54016">
        <ele>174.14</ele>
        <time>2018-02-18T09:28:15Z</time>
      </trkpt>
      <trkpt lat="43.34508" lon="-0.54023">
        <ele>173.17</ele>
        <time>2018-02-18T09:28:16Z</time>
      </trkpt>
      <trkpt lat="43.34502" lon="-0.54029">
        <ele>172.21</ele>
        <time>2018-02-18T09:28:17Z</time>
      </trkpt>
      <trkpt lat="43.34496" lon="-0.54036">
        <ele>171.25</ele>
        <time>2018-02-18T09:28:18Z</time>
      </trkpt>
      <trkpt lat="43.34489" lon="-0.54041">
        <ele>169.81</ele>
        <time>2018-02-18T09:28:19Z</time>
      </trkpt>
      <trkpt lat="43.34458" lon="-0.5406">
        <ele>163.56</ele>
        <time>2018-02-18T09:28:26Z</time>
      </trkpt>
      <trkpt lat="43.34457" lon="-0.54062">
        <ele>163.56</ele>
        <time>2018-02-18T09:28:27Z</time>
      </trkpt>
      <trkpt lat="43.34458" lon="-0.54068">
        <ele>163.56</ele>
        <time>2018-02-18T09:28:29Z</time>
      </trkpt>
      <trkpt lat="43.3446" lon="-0.54071">
        <ele>163.56</ele>
        <time>2018-02-18T09:28:30Z</time>
      </trkpt>
      <trkpt lat="43.34463" lon="-0.54075">
        <ele>163.56</ele>
        <time>2018-02-18T09:28:31Z</time>
      </trkpt>
      <trkpt lat="43.34466" lon="-0.54079">
        <ele>163.08</ele>
        <time>2018-02-18T09:28:32Z</time>
      </trkpt>
      <trkpt lat="43.34486" lon="-0.54098">
        <ele>163.08</ele>
        <time>2018-02-18T09:28:36Z</time>
      </trkpt>
      <trkpt lat="43.34492" lon="-0.54102">
        <ele>162.6</ele>
        <time>2018-02-18T09:28:37Z</time>
      </trkpt>
      <trkpt lat="43.34499" lon="-0.54106">
        <ele>162.6</ele>
        <time>2018-02-18T09:28:38Z</time>
      </trkpt>
      <trkpt lat="43.34542" lon="-0.54126">
        <ele>160.2</ele>
        <time>2018-02-18T09:28:45Z</time>
      </trkpt>
      <trkpt lat="43.34554" lon="-0.54134">
        <ele>158.75</ele>
        <time>2018-02-18T09:28:47Z</time>
      </trkpt>
      <trkpt lat="43.34582" lon="-0.54171">
        <ele>155.87</ele>
        <time>2018-02-18T09:28:55Z</time>
      </trkpt>
      <trkpt lat="43.34581" lon="-0.54175">
        <ele>155.39</ele>
        <time>2018-02-18T09:28:56Z</time>
      </trkpt>
      <trkpt lat="43.34579" lon="-0.54179">
        <ele>155.87</ele>
        <time>2018-02-18T09:28:57Z</time>
      </trkpt>
      <trkpt lat="43.34577" lon="-0.54181">
        <ele>156.35</ele>
        <time>2018-02-18T09:28:58Z</time>
      </trkpt>
      <trkpt lat="43.34574" lon="-0.54185">
        <ele>156.83</ele>
        <time>2018-02-18T09:28:59Z</time>
      </trkpt>
      <trkpt lat="43.34572" lon="-0.54188">
        <ele>157.31</ele>
        <time>2018-02-18T09:29:00Z</time>
      </trkpt>
      <trkpt lat="43.34569" lon="-0.54192">
        <ele>157.31</ele>
        <time>2018-02-18T09:29:01Z</time>
      </trkpt>
      <trkpt lat="43.34565" lon="-0.54196">
        <ele>156.83</ele>
        <time>2018-02-18T09:29:02Z</time>
      </trkpt>
      <trkpt lat="43.34562" lon="-0.54201">
        <ele>156.83</ele>
        <time>2018-02-18T09:29:03Z</time>
      </trkpt>
      <trkpt lat="43.3456" lon="-0.54207">
        <ele>156.83</ele>
        <time>2018-02-18T09:29:04Z</time>
      </trkpt>
      <trkpt lat="43.34558" lon="-0.54212">
        <ele>156.35</ele>
        <time>2018-02-18T09:29:05Z</time>
      </trkpt>
      <trkpt lat="43.34558" lon="-0.54217">
        <ele>155.87</ele>
        <time>2018-02-18T09:29:06Z</time>
      </trkpt>
      <trkpt lat="43.34557" lon="-0.54224">
        <ele>155.87</ele>
        <time>2018-02-18T09:29:07Z</time>
      </trkpt>
      <trkpt lat="43.34557" lon="-0.54231">
        <ele>155.39</ele>
        <time>2018-02-18T09:29:08Z</time>
      </trkpt>
      <trkpt lat="43.34559" lon="-0.54237">
        <ele>155.39</ele>
        <time>2018-02-18T09:29:09Z</time>
      </trkpt>
      <trkpt lat="43.34562" lon="-0.54242">
        <ele>154.91</ele>
        <time>2018-02-18T09:29:10Z</time>
      </trkpt>
      <trkpt lat="43.34567" lon="-0.54248">
        <ele>154.43</ele>
        <time>2018-02-18T09:29:11Z</time>
      </trkpt>
      <trkpt lat="43.3457" lon="-0.5425">
        <ele>154.43</ele>
        <time>2018-02-18T09:29:12Z</time>
      </trkpt>
      <trkpt lat="43.34576" lon="-0.54253">
        <ele>153.95</ele>
        <time>2018-02-18T09:29:13Z</time>
      </trkpt>
      <trkpt lat="43.34582" lon="-0.54255">
        <ele>153.95</ele>
        <time>2018-02-18T09:29:14Z</time>
      </trkpt>
      <trkpt lat="43.34588" lon="-0.54256">
        <ele>153.47</ele>
        <time>2018-02-18T09:29:15Z</time>
      </trkpt>
      <trkpt lat="43.34594" lon="-0.54255">
        <ele>152.51</ele>
        <time>2018-02-18T09:29:16Z</time>
      </trkpt>
      <trkpt lat="43.34601" lon="-0.54253">
        <ele>152.03</ele>
        <time>2018-02-18T09:29:17Z</time>
      </trkpt>
      <trkpt lat="43.34608" lon="-0.54251">
        <ele>151.54</ele>
        <time>2018-02-18T09:29:18Z</time>
      </trkpt>
      <trkpt lat="43.34616" lon="-0.54247">
        <ele>151.06</ele>
        <time>2018-02-18T09:29:19Z</time>
      </trkpt>
      <trkpt lat="43.34624" lon="-0.54244">
        <ele>150.58</ele>
        <time>2018-02-18T09:29:20Z</time>
      </trkpt>
      <trkpt lat="43.34689" lon="-0.54211">
        <ele>145.78</ele>
        <time>2018-02-18T09:29:29Z</time>
      </trkpt>
      <trkpt lat="43.34693" lon="-0.54209">
        <ele>145.3</ele>
        <time>2018-02-18T09:29:30Z</time>
      </trkpt>
      <trkpt lat="43.34697" lon="-0.54208">
        <ele>144.82</ele>
        <time>2018-02-18T09:29:31Z</time>
      </trkpt>
      <trkpt lat="43.347" lon="-0.5421">
        <ele>144.34</ele>
        <time>2018-02-18T09:29:32Z</time>
      </trkpt>
      <trkpt lat="43.34703" lon="-0.54216">
        <ele>144.34</ele>
        <time>2018-02-18T09:29:33Z</time>
      </trkpt>
      <trkpt lat="43.34705" lon="-0.54222">
        <ele>143.85</ele>
        <time>2018-02-18T09:29:34Z</time>
      </trkpt>
      <trkpt lat="43.34706" lon="-0.54228">
        <ele>142.89</ele>
        <time>2018-02-18T09:29:35Z</time>
      </trkpt>
      <trkpt lat="43.34705" lon="-0.54235">
        <ele>141.93</ele>
        <time>2018-02-18T09:29:36Z</time>
      </trkpt>
      <trkpt lat="43.34704" lon="-0.54242">
        <ele>140.97</ele>
        <time>2018-02-18T09:29:37Z</time>
      </trkpt>
      <trkpt lat="43.34702" lon="-0.54251">
        <ele>140.49</ele>
        <time>2018-02-18T09:29:38Z</time>
      </trkpt>
      <trkpt lat="43.34679" lon="-0.54352">
        <ele>130.4</ele>
        <time>2018-02-18T09:29:47Z</time>
      </trkpt>
      <trkpt lat="43.34675" lon="-0.54362">
        <ele>129.43</ele>
        <time>2018-02-18T09:29:48Z</time>
      </trkpt>
      <trkpt lat="43.34672" lon="-0.5437">
        <ele>127.99</ele>
        <time>2018-02-18T09:29:49Z</time>
      </trkpt>
      <trkpt lat="43.34671" lon="-0.54376">
        <ele>127.03</ele>
        <time>2018-02-18T09:29:50Z</time>
      </trkpt>
      <trkpt lat="43.34672" lon="-0.54383">
        <ele>126.07</ele>
        <time>2018-02-18T09:29:51Z</time>
      </trkpt>
      <trkpt lat="43.34674" lon="-0.5439">
        <ele>125.59</ele>
        <time>2018-02-18T09:29:52Z</time>
      </trkpt>
      <trkpt lat="43.34676" lon="-0.54396">
        <ele>125.11</ele>
        <time>2018-02-18T09:29:53Z</time>
      </trkpt>
      <trkpt lat="43.34677" lon="-0.54402">
        <ele>125.11</ele>
        <time>2018-02-18T09:29:54Z</time>
      </trkpt>
      <trkpt lat="43.34677" lon="-0.54408">
        <ele>124.63</ele>
        <time>2018-02-18T09:29:55Z</time>
      </trkpt>
      <trkpt lat="43.34676" lon="-0.54413">
        <ele>124.63</ele>
        <time>2018-02-18T09:29:56Z</time>
      </trkpt>
      <trkpt lat="43.34675" lon="-0.54417">
        <ele>124.15</ele>
        <time>2018-02-18T09:29:57Z</time>
      </trkpt>
      <trkpt lat="43.34674" lon="-0.54422">
        <ele>124.15</ele>
        <time>2018-02-18T09:29:58Z</time>
      </trkpt>
      <trkpt lat="43.34672" lon="-0.54426">
        <ele>124.15</ele>
        <time>2018-02-18T09:29:59Z</time>
      </trkpt>
      <trkpt lat="43.34665" lon="-0.54465">
        <ele>123.67</ele>
        <time>2018-02-18T09:30:08Z</time>
      </trkpt>
      <trkpt lat="43.34662" lon="-0.54508">
        <ele>122.71</ele>
        <time>2018-02-18T09:30:18Z</time>
      </trkpt>
      <trkpt lat="43.34656" lon="-0.5456">
        <ele>122.71</ele>
        <time>2018-02-18T09:30:28Z</time>
      </trkpt>
      <trkpt lat="43.3465" lon="-0.54609">
        <ele>123.67</ele>
        <time>2018-02-18T09:30:39Z</time>
      </trkpt>
      <trkpt lat="43.3465" lon="-0.54612">
        <ele>124.15</ele>
        <time>2018-02-18T09:30:40Z</time>
      </trkpt>
      <trkpt lat="43.34651" lon="-0.54615">
        <ele>125.11</ele>
        <time>2018-02-18T09:30:41Z</time>
      </trkpt>
      <trkpt lat="43.34653" lon="-0.54617">
        <ele>126.55</ele>
        <time>2018-02-18T09:30:42Z</time>
      </trkpt>
      <trkpt lat="43.34654" lon="-0.54616">
        <ele>127.03</ele>
        <time>2018-02-18T09:30:43Z</time>
      </trkpt>
      <trkpt lat="43.34656" lon="-0.54616">
        <ele>127.99</ele>
        <time>2018-02-18T09:30:44Z</time>
      </trkpt>
      <trkpt lat="43.34657" lon="-0.54614">
        <ele>128.47</ele>
        <time>2018-02-18T09:30:45Z</time>
      </trkpt>
      <trkpt lat="43.34674" lon="-0.54589">
        <ele>133.76</ele>
        <time>2018-02-18T09:30:59Z</time>
      </trkpt>
      <trkpt lat="43.34686" lon="-0.54574">
        <ele>133.76</ele>
        <time>2018-02-18T09:31:09Z</time>
      </trkpt>
      <trkpt lat="43.34691" lon="-0.5457">
        <ele>134.24</ele>
        <time>2018-02-18T09:31:12Z</time>
      </trkpt>
      <trkpt lat="43.34709" lon="-0.54548">
        <ele>137.61</ele>
        <time>2018-02-18T09:31:24Z</time>
      </trkpt>
      <trkpt lat="43.34725" lon="-0.54528">
        <ele>141.93</ele>
        <time>2018-02-18T09:31:34Z</time>
      </trkpt>
      <trkpt lat="43.34754" lon="-0.54495">
        <ele>147.7</ele>
        <time>2018-02-18T09:31:51Z</time>
      </trkpt>
      <trkpt lat="43.34776" lon="-0.54471">
        <ele>151.54</ele>
        <time>2018-02-18T09:32:06Z</time>
      </trkpt>
      <trkpt lat="43.34797" lon="-0.54446">
        <ele>152.51</ele>
        <time>2018-02-18T09:32:19Z</time>
      </trkpt>
      <trkpt lat="43.34825" lon="-0.54412">
        <ele>154.43</ele>
        <time>2018-02-18T09:32:36Z</time>
      </trkpt>
      <trkpt lat="43.34852" lon="-0.54386">
        <ele>155.39</ele>
        <time>2018-02-18T09:32:50Z</time>
      </trkpt>
      <trkpt lat="43.34883" lon="-0.54371">
        <ele>159.24</ele>
        <time>2018-02-18T09:33:05Z</time>
      </trkpt>
      <trkpt lat="43.3491" lon="-0.5436">
        <ele>160.68</ele>
        <time>2018-02-18T09:33:18Z</time>
      </trkpt>
      <trkpt lat="43.34936" lon="-0.54324">
        <ele>159.24</ele>
        <time>2018-02-18T09:33:34Z</time>
      </trkpt>
      <trkpt lat="43.34953" lon="-0.54301">
        <ele>160.2</ele>
        <time>2018-02-18T09:33:48Z</time>
      </trkpt>
      <trkpt lat="43.34974" lon="-0.54274">
        <ele>164.52</ele>
        <time>2018-02-18T09:34:06Z</time>
      </trkpt>
      <trkpt lat="43.34993" lon="-0.54251">
        <ele>166.93</ele>
        <time>2018-02-18T09:34:24Z</time>
      </trkpt>
      <trkpt lat="43.35005" lon="-0.54224">
        <ele>168.85</ele>
        <time>2018-02-18T09:34:44Z</time>
      </trkpt>
      <trkpt lat="43.35004" lon="-0.54211">
        <ele>169.81</ele>
        <time>2018-02-18T09:34:52Z</time>
      </trkpt>
      <trkpt lat="43.35004" lon="-0.54209">
        <ele>169.81</ele>
        <time>2018-02-18T09:34:53Z</time>
      </trkpt>
      <trkpt lat="43.35004" lon="-0.54208">
        <ele>169.81</ele>
        <time>2018-02-18T09:34:54Z</time>
      </trkpt>
      <trkpt lat="43.35003" lon="-0.54206">
        <ele>170.29</ele>
        <time>2018-02-18T09:34:55Z</time>
      </trkpt>
      <trkpt lat="43.35003" lon="-0.54204">
        <ele>170.29</ele>
        <time>2018-02-18T09:34:56Z</time>
      </trkpt>
      <trkpt lat="43.35003" lon="-0.54202">
        <ele>170.77</ele>
        <time>2018-02-18T09:34:57Z</time>
      </trkpt>
      <trkpt lat="43.35002" lon="-0.542">
        <ele>170.77</ele>
        <time>2018-02-18T09:34:58Z</time>
      </trkpt>
      <trkpt lat="43.35002" lon="-0.54199">
        <ele>171.25</ele>
        <time>2018-02-18T09:34:59Z</time>
      </trkpt>
      <trkpt lat="43.35001" lon="-0.54197">
        <ele>171.73</ele>
        <time>2018-02-18T09:35:00Z</time>
      </trkpt>
      <trkpt lat="43.35001" lon="-0.54196">
        <ele>171.73</ele>
        <time>2018-02-18T09:35:01Z</time>
      </trkpt>
      <trkpt lat="43.35" lon="-0.54194">
        <ele>172.21</ele>
        <time>2018-02-18T09:35:02Z</time>
      </trkpt>
      <trkpt lat="43.35" lon="-0.54192">
        <ele>172.21</ele>
        <time>2018-02-18T09:35:03Z</time>
      </trkpt>
      <trkpt lat="43.34999" lon="-0.54191">
        <ele>172.69</ele>
        <time>2018-02-18T09:35:04Z</time>
      </trkpt>
      <trkpt lat="43.34998" lon="-0.54189">
        <ele>172.69</ele>
        <time>2018-02-18T09:35:05Z</time>
      </trkpt>
      <trkpt lat="43.34998" lon="-0.54187">
        <ele>172.69</ele>
        <time>2018-02-18T09:35:06Z</time>
      </trkpt>
      <trkpt lat="43.34997" lon="-0.54185">
        <ele>172.69</ele>
        <time>2018-02-18T09:35:07Z</time>
      </trkpt>
      <trkpt lat="43.34996" lon="-0.54183">
        <ele>172.69</ele>
        <time>2018-02-18T09:35:08Z</time>
      </trkpt>
      <trkpt lat="43.34995" lon="-0.54181">
        <ele>172.69</ele>
        <time>2018-02-18T09:35:09Z</time>
      </trkpt>
      <trkpt lat="43.34995" lon="-0.54179">
        <ele>172.69</ele>
        <time>2018-02-18T09:35:10Z</time>
      </trkpt>
      <trkpt lat="43.34994" lon="-0.54177">
        <ele>172.69</ele>
        <time>2018-02-18T09:35:11Z</time>
      </trkpt>
      <trkpt lat="43.34994" lon="-0.54175">
        <ele>172.69</ele>
        <time>2018-02-18T09:35:12Z</time>
      </trkpt>
      <trkpt lat="43.34993" lon="-0.54172">
        <ele>172.69</ele>
        <time>2018-02-18T09:35:13Z</time>
      </trkpt>
      <trkpt lat="43.34992" lon="-0.5417">
        <ele>172.69</ele>
        <time>2018-02-18T09:35:14Z</time>
      </trkpt>
      <trkpt lat="43.34991" lon="-0.54168">
        <ele>172.69</ele>
        <time>2018-02-18T09:35:15Z</time>
      </trkpt>
      <trkpt lat="43.34991" lon="-0.54166">
        <ele>172.69</ele>
        <time>2018-02-18T09:35:16Z</time>
      </trkpt>
      <trkpt lat="43.3499" lon="-0.54164">
        <ele>172.69</ele>
        <time>2018-02-18T09:35:17Z</time>
      </trkpt>
      <trkpt lat="43.34988" lon="-0.54118">
        <ele>173.17</ele>
        <time>2018-02-18T09:35:31Z</time>
      </trkpt>
      <trkpt lat="43.34993" lon="-0.54059">
        <ele>175.1</ele>
        <time>2018-02-18T09:35:46Z</time>
      </trkpt>
      <trkpt lat="43.34997" lon="-0.54001">
        <ele>176.06</ele>
        <time>2018-02-18T09:36:00Z</time>
      </trkpt>
      <trkpt lat="43.34978" lon="-0.53937">
        <ele>179.42</ele>
        <time>2018-02-18T09:36:16Z</time>
      </trkpt>
      <trkpt lat="43.34977" lon="-0.53933">
        <ele>179.42</ele>
        <time>2018-02-18T09:36:17Z</time>
      </trkpt>
      <trkpt lat="43.34976" lon="-0.53928">
        <ele>179.9</ele>
        <time>2018-02-18T09:36:18Z</time>
      </trkpt>
      <trkpt lat="43.34968" lon="-0.53863">
        <ele>179.42</ele>
        <time>2018-02-18T09:36:32Z</time>
      </trkpt>
      <trkpt lat="43.34968" lon="-0.53809">
        <ele>178.94</ele>
        <time>2018-02-18T09:36:44Z</time>
      </trkpt>
      <trkpt lat="43.34972" lon="-0.53787">
        <ele>179.9</ele>
        <time>2018-02-18T09:36:53Z</time>
      </trkpt>
      <trkpt lat="43.34974" lon="-0.53785">
        <ele>180.38</ele>
        <time>2018-02-18T09:36:54Z</time>
      </trkpt>
      <trkpt lat="43.34975" lon="-0.53784">
        <ele>180.38</ele>
        <time>2018-02-18T09:36:55Z</time>
      </trkpt>
      <trkpt lat="43.34995" lon="-0.53758">
        <ele>185.19</ele>
        <time>2018-02-18T09:37:12Z</time>
      </trkpt>
      <trkpt lat="43.35013" lon="-0.53738">
        <ele>189.52</ele>
        <time>2018-02-18T09:37:29Z</time>
      </trkpt>
      <trkpt lat="43.35017" lon="-0.53735">
        <ele>189.52</ele>
        <time>2018-02-18T09:37:32Z</time>
      </trkpt>
      <trkpt lat="43.35017" lon="-0.53733">
        <ele>189.52</ele>
        <time>2018-02-18T09:37:33Z</time>
      </trkpt>
      <trkpt lat="43.35018" lon="-0.53732">
        <ele>190</ele>
        <time>2018-02-18T09:37:34Z</time>
      </trkpt>
      <trkpt lat="43.35019" lon="-0.53731">
        <ele>190</ele>
        <time>2018-02-18T09:37:35Z</time>
      </trkpt>
      <trkpt lat="43.3502" lon="-0.5373">
        <ele>190.48</ele>
        <time>2018-02-18T09:37:36Z</time>
      </trkpt>
      <trkpt lat="43.35021" lon="-0.53728">
        <ele>190.48</ele>
        <time>2018-02-18T09:37:37Z</time>
      </trkpt>
      <trkpt lat="43.35022" lon="-0.53727">
        <ele>190.96</ele>
        <time>2018-02-18T09:37:38Z</time>
      </trkpt>
      <trkpt lat="43.35034" lon="-0.53706">
        <ele>191.92</ele>
        <time>2018-02-18T09:37:54Z</time>
      </trkpt>
      <trkpt lat="43.35019" lon="-0.53669">
        <ele>191.92</ele>
        <time>2018-02-18T09:38:09Z</time>
      </trkpt>
      <trkpt lat="43.35007" lon="-0.53626">
        <ele>194.32</ele>
        <time>2018-02-18T09:38:26Z</time>
      </trkpt>
      <trkpt lat="43.35001" lon="-0.53585">
        <ele>194.8</ele>
        <time>2018-02-18T09:38:41Z</time>
      </trkpt>
      <trkpt lat="43.35002" lon="-0.53534">
        <ele>195.77</ele>
        <time>2018-02-18T09:38:58Z</time>
      </trkpt>
      <trkpt lat="43.35004" lon="-0.53478">
        <ele>197.21</ele>
        <time>2018-02-18T09:39:14Z</time>
      </trkpt>
      <trkpt lat="43.35" lon="-0.53425">
        <ele>198.17</ele>
        <time>2018-02-18T09:39:30Z</time>
      </trkpt>
      <trkpt lat="43.34996" lon="-0.53385">
        <ele>202.01</ele>
        <time>2018-02-18T09:39:45Z</time>
      </trkpt>
      <trkpt lat="43.34982" lon="-0.53341">
        <ele>206.34</ele>
        <time>2018-02-18T09:40:00Z</time>
      </trkpt>
      <trkpt lat="43.34969" lon="-0.53305">
        <ele>206.82</ele>
        <time>2018-02-18T09:40:11Z</time>
      </trkpt>
      <trkpt lat="43.34965" lon="-0.53279">
        <ele>209.7</ele>
        <time>2018-02-18T09:40:21Z</time>
      </trkpt>
      <trkpt lat="43.34966" lon="-0.53278">
        <ele>210.19</ele>
        <time>2018-02-18T09:40:22Z</time>
      </trkpt>
      <trkpt lat="43.34967" lon="-0.53278">
        <ele>210.19</ele>
        <time>2018-02-18T09:40:23Z</time>
      </trkpt>
      <trkpt lat="43.34968" lon="-0.5328">
        <ele>210.19</ele>
        <time>2018-02-18T09:40:25Z</time>
      </trkpt>
      <trkpt lat="43.34968" lon="-0.53282">
        <ele>210.19</ele>
        <time>2018-02-18T09:40:26Z</time>
      </trkpt>
      <trkpt lat="43.34969" lon="-0.53284">
        <ele>210.19</ele>
        <time>2018-02-18T09:40:27Z</time>
      </trkpt>
      <trkpt lat="43.34986" lon="-0.53301">
        <ele>209.7</ele>
        <time>2018-02-18T09:40:42Z</time>
      </trkpt>
      <trkpt lat="43.34992" lon="-0.53307">
        <ele>210.67</ele>
        <time>2018-02-18T09:40:47Z</time>
      </trkpt>
      <trkpt lat="43.34994" lon="-0.53309">
        <ele>210.67</ele>
        <time>2018-02-18T09:40:48Z</time>
      </trkpt>
      <trkpt lat="43.34995" lon="-0.5331">
        <ele>210.67</ele>
        <time>2018-02-18T09:40:49Z</time>
      </trkpt>
      <trkpt lat="43.34996" lon="-0.53311">
        <ele>210.67</ele>
        <time>2018-02-18T09:40:50Z</time>
      </trkpt>
      <trkpt lat="43.34998" lon="-0.53312">
        <ele>210.67</ele>
        <time>2018-02-18T09:40:51Z</time>
      </trkpt>
      <trkpt lat="43.34999" lon="-0.53314">
        <ele>210.67</ele>
        <time>2018-02-18T09:40:52Z</time>
      </trkpt>
      <trkpt lat="43.35" lon="-0.53315">
        <ele>210.67</ele>
        <time>2018-02-18T09:40:53Z</time>
      </trkpt>
      <trkpt lat="43.35013" lon="-0.5333">
        <ele>211.15</ele>
        <time>2018-02-18T09:41:05Z</time>
      </trkpt>
      <trkpt lat="43.35024" lon="-0.53346">
        <ele>214.99</ele>
        <time>2018-02-18T09:41:16Z</time>
      </trkpt>
      <trkpt lat="43.35028" lon="-0.53354">
        <ele>215.95</ele>
        <time>2018-02-18T09:41:21Z</time>
      </trkpt>
      <trkpt lat="43.35041" lon="-0.53389">
        <ele>215.95</ele>
        <time>2018-02-18T09:41:36Z</time>
      </trkpt>
      <trkpt lat="43.35053" lon="-0.53438">
        <ele>213.55</ele>
        <time>2018-02-18T09:41:46Z</time>
      </trkpt>
      <trkpt lat="43.3506" lon="-0.53486">
        <ele>215.47</ele>
        <time>2018-02-18T09:42:00Z</time>
      </trkpt>
      <trkpt lat="43.35073" lon="-0.53543">
        <ele>213.55</ele>
        <time>2018-02-18T09:42:16Z</time>
      </trkpt>
      <trkpt lat="43.35075" lon="-0.53556">
        <ele>212.11</ele>
        <time>2018-02-18T09:42:18Z</time>
      </trkpt>
      <trkpt lat="43.35076" lon="-0.53564">
        <ele>211.15</ele>
        <time>2018-02-18T09:42:19Z</time>
      </trkpt>
      <trkpt lat="43.35076" lon="-0.53571">
        <ele>210.19</ele>
        <time>2018-02-18T09:42:20Z</time>
      </trkpt>
      <trkpt lat="43.35075" lon="-0.53579">
        <ele>209.22</ele>
        <time>2018-02-18T09:42:21Z</time>
      </trkpt>
      <trkpt lat="43.35074" lon="-0.53586">
        <ele>208.26</ele>
        <time>2018-02-18T09:42:22Z</time>
      </trkpt>
      <trkpt lat="43.35073" lon="-0.53604">
        <ele>205.38</ele>
        <time>2018-02-18T09:42:25Z</time>
      </trkpt>
      <trkpt lat="43.35074" lon="-0.53609">
        <ele>204.42</ele>
        <time>2018-02-18T09:42:26Z</time>
      </trkpt>
      <trkpt lat="43.35076" lon="-0.53614">
        <ele>204.42</ele>
        <time>2018-02-18T09:42:27Z</time>
      </trkpt>
      <trkpt lat="43.35105" lon="-0.53653">
        <ele>203.94</ele>
        <time>2018-02-18T09:42:39Z</time>
      </trkpt>
      <trkpt lat="43.35115" lon="-0.53687">
        <ele>203.94</ele>
        <time>2018-02-18T09:42:51Z</time>
      </trkpt>
      <trkpt lat="43.35124" lon="-0.53729">
        <ele>205.86</ele>
        <time>2018-02-18T09:43:10Z</time>
      </trkpt>
      <trkpt lat="43.35133" lon="-0.53757">
        <ele>208.26</ele>
        <time>2018-02-18T09:43:26Z</time>
      </trkpt>
      <trkpt lat="43.35134" lon="-0.53762">
        <ele>207.78</ele>
        <time>2018-02-18T09:43:29Z</time>
      </trkpt>
      <trkpt lat="43.35135" lon="-0.53763">
        <ele>207.78</ele>
        <time>2018-02-18T09:43:30Z</time>
      </trkpt>
      <trkpt lat="43.35136" lon="-0.53765">
        <ele>207.78</ele>
        <time>2018-02-18T09:43:31Z</time>
      </trkpt>
      <trkpt lat="43.35141" lon="-0.53783">
        <ele>209.22</ele>
        <time>2018-02-18T09:43:44Z</time>
      </trkpt>
      <trkpt lat="43.35144" lon="-0.53794">
        <ele>210.19</ele>
        <time>2018-02-18T09:43:55Z</time>
      </trkpt>
      <trkpt lat="43.35146" lon="-0.5381">
        <ele>220.28</ele>
        <time>2018-02-18T09:44:11Z</time>
      </trkpt>
      <trkpt lat="43.3515" lon="-0.53822">
        <ele>223.16</ele>
        <time>2018-02-18T09:44:26Z</time>
      </trkpt>
      <trkpt lat="43.35154" lon="-0.53827">
        <ele>224.61</ele>
        <time>2018-02-18T09:45:02Z</time>
      </trkpt>
      <trkpt lat="43.35155" lon="-0.53838">
        <ele>229.89</ele>
        <time>2018-02-18T09:45:16Z</time>
      </trkpt>
      <trkpt lat="43.35156" lon="-0.53842">
        <ele>230.37</ele>
        <time>2018-02-18T09:45:28Z</time>
      </trkpt>
      <trkpt lat="43.35156" lon="-0.53844">
        <ele>231.81</ele>
        <time>2018-02-18T09:45:45Z</time>
      </trkpt>
      <trkpt lat="43.35158" lon="-0.53855">
        <ele>233.26</ele>
        <time>2018-02-18T09:46:03Z</time>
      </trkpt>
      <trkpt lat="43.35162" lon="-0.53866">
        <ele>238.06</ele>
        <time>2018-02-18T09:46:18Z</time>
      </trkpt>
      <trkpt lat="43.35162" lon="-0.53873">
        <ele>239.99</ele>
        <time>2018-02-18T09:46:31Z</time>
      </trkpt>
      <trkpt lat="43.35163" lon="-0.53879">
        <ele>239.02</ele>
        <time>2018-02-18T09:46:40Z</time>
      </trkpt>
      <trkpt lat="43.35163" lon="-0.53881">
        <ele>239.02</ele>
        <time>2018-02-18T09:46:41Z</time>
      </trkpt>
      <trkpt lat="43.35164" lon="-0.53883">
        <ele>239.02</ele>
        <time>2018-02-18T09:46:42Z</time>
      </trkpt>
      <trkpt lat="43.35166" lon="-0.53884">
        <ele>239.02</ele>
        <time>2018-02-18T09:46:43Z</time>
      </trkpt>
      <trkpt lat="43.35167" lon="-0.53886">
        <ele>239.02</ele>
        <time>2018-02-18T09:46:44Z</time>
      </trkpt>
      <trkpt lat="43.35169" lon="-0.5389">
        <ele>240.47</ele>
        <time>2018-02-18T09:46:57Z</time>
      </trkpt>
      <trkpt lat="43.35176" lon="-0.53901">
        <ele>237.58</ele>
        <time>2018-02-18T09:47:14Z</time>
      </trkpt>
      <trkpt lat="43.35185" lon="-0.53918">
        <ele>233.26</ele>
        <time>2018-02-18T09:47:26Z</time>
      </trkpt>
      <trkpt lat="43.35198" lon="-0.53931">
        <ele>227.01</ele>
        <time>2018-02-18T09:47:37Z</time>
      </trkpt>
      <trkpt lat="43.352" lon="-0.53934">
        <ele>226.05</ele>
        <time>2018-02-18T09:47:39Z</time>
      </trkpt>
      <trkpt lat="43.35214" lon="-0.53965">
        <ele>218.36</ele>
        <time>2018-02-18T09:47:50Z</time>
      </trkpt>
      <trkpt lat="43.35223" lon="-0.53992">
        <ele>214.51</ele>
        <time>2018-02-18T09:47:58Z</time>
      </trkpt>
      <trkpt lat="43.35237" lon="-0.54025">
        <ele>204.42</ele>
        <time>2018-02-18T09:48:08Z</time>
      </trkpt>
      <trkpt lat="43.35237" lon="-0.54029">
        <ele>202.98</ele>
        <time>2018-02-18T09:48:09Z</time>
      </trkpt>
      <trkpt lat="43.35239" lon="-0.54042">
        <ele>198.17</ele>
        <time>2018-02-18T09:48:13Z</time>
      </trkpt>
      <trkpt lat="43.35239" lon="-0.54046">
        <ele>195.77</ele>
        <time>2018-02-18T09:48:15Z</time>
      </trkpt>
      <trkpt lat="43.3524" lon="-0.54049">
        <ele>194.8</ele>
        <time>2018-02-18T09:48:16Z</time>
      </trkpt>
      <trkpt lat="43.35252" lon="-0.541">
        <ele>188.56</ele>
        <time>2018-02-18T09:48:26Z</time>
      </trkpt>
      <trkpt lat="43.35273" lon="-0.54169">
        <ele>187.11</ele>
        <time>2018-02-18T09:48:38Z</time>
      </trkpt>
      <trkpt lat="43.35289" lon="-0.54234">
        <ele>189.04</ele>
        <time>2018-02-18T09:48:52Z</time>
      </trkpt>
      <trkpt lat="43.35301" lon="-0.54312">
        <ele>192.4</ele>
        <time>2018-02-18T09:49:09Z</time>
      </trkpt>
      <trkpt lat="43.35301" lon="-0.5438">
        <ele>195.28</ele>
        <time>2018-02-18T09:49:25Z</time>
      </trkpt>
      <trkpt lat="43.35299" lon="-0.54449">
        <ele>195.28</ele>
        <time>2018-02-18T09:49:40Z</time>
      </trkpt>
      <trkpt lat="43.35301" lon="-0.54522">
        <ele>195.28</ele>
        <time>2018-02-18T09:49:56Z</time>
      </trkpt>
      <trkpt lat="43.35301" lon="-0.54558">
        <ele>196.25</ele>
        <time>2018-02-18T09:50:07Z</time>
      </trkpt>
      <trkpt lat="43.35299" lon="-0.54585">
        <ele>198.17</ele>
        <time>2018-02-18T09:50:20Z</time>
      </trkpt>
      <trkpt lat="43.35295" lon="-0.54621">
        <ele>194.8</ele>
        <time>2018-02-18T09:50:32Z</time>
      </trkpt>
      <trkpt lat="43.35296" lon="-0.5467">
        <ele>192.4</ele>
        <time>2018-02-18T09:50:46Z</time>
      </trkpt>
      <trkpt lat="43.35308" lon="-0.54723">
        <ele>200.57</ele>
        <time>2018-02-18T09:51:00Z</time>
      </trkpt>
      <trkpt lat="43.35331" lon="-0.54747">
        <ele>203.46</ele>
        <time>2018-02-18T09:51:12Z</time>
      </trkpt>
      <trkpt lat="43.35342" lon="-0.54754">
        <ele>202.98</ele>
        <time>2018-02-18T09:51:23Z</time>
      </trkpt>
      <trkpt lat="43.35346" lon="-0.54759">
        <ele>200.57</ele>
        <time>2018-02-18T09:51:49Z</time>
      </trkpt>
      <trkpt lat="43.35347" lon="-0.54761">
        <ele>201.05</ele>
        <time>2018-02-18T09:51:53Z</time>
      </trkpt>
      <trkpt lat="43.35348" lon="-0.54762">
        <ele>201.05</ele>
        <time>2018-02-18T09:51:54Z</time>
      </trkpt>
      <trkpt lat="43.35348" lon="-0.54764">
        <ele>199.61</ele>
        <time>2018-02-18T09:51:56Z</time>
      </trkpt>
      <trkpt lat="43.35349" lon="-0.54766">
        <ele>198.17</ele>
        <time>2018-02-18T09:51:57Z</time>
      </trkpt>
      <trkpt lat="43.35347" lon="-0.54775">
        <ele>192.88</ele>
        <time>2018-02-18T09:52:05Z</time>
      </trkpt>
      <trkpt lat="43.35346" lon="-0.54776">
        <ele>192.88</ele>
        <time>2018-02-18T09:52:06Z</time>
      </trkpt>
      <trkpt lat="43.35344" lon="-0.54777">
        <ele>192.88</ele>
        <time>2018-02-18T09:52:07Z</time>
      </trkpt>
      <trkpt lat="43.35337" lon="-0.54791">
        <ele>191.44</ele>
        <time>2018-02-18T09:52:11Z</time>
      </trkpt>
      <trkpt lat="43.35321" lon="-0.54858">
        <ele>184.23</ele>
        <time>2018-02-18T09:52:22Z</time>
      </trkpt>
      <trkpt lat="43.35316" lon="-0.54881">
        <ele>182.31</ele>
        <time>2018-02-18T09:52:25Z</time>
      </trkpt>
      <trkpt lat="43.35309" lon="-0.54936">
        <ele>177.02</ele>
        <time>2018-02-18T09:52:30Z</time>
      </trkpt>
      <trkpt lat="43.35315" lon="-0.55031">
        <ele>162.6</ele>
        <time>2018-02-18T09:52:42Z</time>
      </trkpt>
      <trkpt lat="43.35319" lon="-0.55087">
        <ele>152.03</ele>
        <time>2018-02-18T09:52:48Z</time>
      </trkpt>
      <trkpt lat="43.35322" lon="-0.55118">
        <ele>147.22</ele>
        <time>2018-02-18T09:52:53Z</time>
      </trkpt>
      <trkpt lat="43.35321" lon="-0.55122">
        <ele>146.74</ele>
        <time>2018-02-18T09:52:54Z</time>
      </trkpt>
      <trkpt lat="43.3532" lon="-0.55127">
        <ele>145.78</ele>
        <time>2018-02-18T09:52:55Z</time>
      </trkpt>
      <trkpt lat="43.35317" lon="-0.55131">
        <ele>144.82</ele>
        <time>2018-02-18T09:52:56Z</time>
      </trkpt>
      <trkpt lat="43.35315" lon="-0.55135">
        <ele>143.85</ele>
        <time>2018-02-18T09:52:57Z</time>
      </trkpt>
      <trkpt lat="43.35312" lon="-0.55138">
        <ele>142.89</ele>
        <time>2018-02-18T09:52:58Z</time>
      </trkpt>
      <trkpt lat="43.35292" lon="-0.55164">
        <ele>138.57</ele>
        <time>2018-02-18T09:53:06Z</time>
      </trkpt>
      <trkpt lat="43.35288" lon="-0.5517">
        <ele>137.61</ele>
        <time>2018-02-18T09:53:08Z</time>
      </trkpt>
      <trkpt lat="43.35285" lon="-0.55173">
        <ele>137.13</ele>
        <time>2018-02-18T09:53:09Z</time>
      </trkpt>
      <trkpt lat="43.35283" lon="-0.55176">
        <ele>136.64</ele>
        <time>2018-02-18T09:53:10Z</time>
      </trkpt>
      <trkpt lat="43.35273" lon="-0.55193">
        <ele>133.28</ele>
        <time>2018-02-18T09:53:14Z</time>
      </trkpt>
      <trkpt lat="43.35269" lon="-0.55198">
        <ele>131.84</ele>
        <time>2018-02-18T09:53:15Z</time>
      </trkpt>
      <trkpt lat="43.35265" lon="-0.55202">
        <ele>130.88</ele>
        <time>2018-02-18T09:53:16Z</time>
      </trkpt>
      <trkpt lat="43.3526" lon="-0.55207">
        <ele>129.92</ele>
        <time>2018-02-18T09:53:17Z</time>
      </trkpt>
      <trkpt lat="43.35255" lon="-0.55214">
        <ele>128.95</ele>
        <time>2018-02-18T09:53:18Z</time>
      </trkpt>
      <trkpt lat="43.35251" lon="-0.5522">
        <ele>127.99</ele>
        <time>2018-02-18T09:53:19Z</time>
      </trkpt>
      <trkpt lat="43.35222" lon="-0.55266">
        <ele>121.26</ele>
        <time>2018-02-18T09:53:27Z</time>
      </trkpt>
      <trkpt lat="43.35221" lon="-0.55316">
        <ele>121.26</ele>
        <time>2018-02-18T09:53:39Z</time>
      </trkpt>
      <trkpt lat="43.35218" lon="-0.5532">
        <ele>121.74</ele>
        <time>2018-02-18T09:53:49Z</time>
      </trkpt>
      <trkpt lat="43.35217" lon="-0.5532">
        <ele>122.22</ele>
        <time>2018-02-18T09:53:51Z</time>
      </trkpt>
    </trkseg>
  </trk>
</gpx>